Data for 09/17/2009

Time Sea-Level Adjusted Pressure Absolute Pressure Temperature Relative Humidity Dew Point Precipitation   
(mb) (inHg) (mb) (inHg) (C) (F) (%) (C) (F) (mm) (in)
00:01 1024 30.24 853 25.19 19.1 66.5 37 4.3 39.8 19.41 0.764
00:02 1024 30.24 853 25.19 19 66.3 38 4.5 40.1 19.34 0.761
00:03 1024 30.24 853 25.19 18.8 65.9 38 4.4 40 19.17 0.755
00:04 1024 30.24 853 25.19 18.7 65.7 38 4.2 39.6 19.12 0.753
00:05 1024 30.24 853 25.19 18.8 65.8 38 4.3 39.8 19.13 0.753
00:06 1024 30.24 853 25.19 18.9 66.1 38 4.3 39.7 19.28 0.759
00:07 1024 30.24 853 25.19 19.1 66.4 38 4.5 40.2 19.38 0.763
00:08 1024 30.24 853 25.19 19 66.2 38 4.6 40.3 19.3 0.76
00:09 1024 30.24 853 25.19 18.8 65.8 39 4.7 40.5 19.11 0.752
00:10 1024 30.24 853 25.19 18.4 65.1 41 4.9 40.9 18.75 0.738
00:11 1024 30.24 853 25.19 18.1 64.5 42 5.2 41.3 18.42 0.725
00:12 1024 30.24 853 25.19 17.7 63.9 43 5.2 41.3 18.11 0.713
00:13 1024 30.24 853 25.19 17.5 63.4 42 4.7 40.5 17.87 0.704
00:14 1024 30.24 853 25.19 17.6 63.7 41 4.4 39.9 18 0.709
00:15 1024 30.24 853 25.19 17.9 64.2 40 4.4 39.9 18.2 0.717
00:16 1024 30.24 853 25.19 18 64.3 41 4.6 40.3 18.3 0.72
00:17 1024 30.24 853 25.19 17.9 64.2 41 4.7 40.5 18.22 0.717
00:18 1024 30.24 853 25.19 17.8 64 42 4.8 40.6 18.08 0.712
00:19 1024 30.24 853 25.19 17.7 63.8 42 4.7 40.4 18.01 0.709
00:20 1024 30.24 853 25.19 17.6 63.6 43 4.8 40.7 17.9 0.705
00:21 1024 30.24 853 25.19 17.4 63.4 43 4.9 40.8 17.78 0.7
00:22 1024 30.24 853 25.19 17.3 63.2 44 5 40.9 17.69 0.696
00:23 1024 30.24 853 25.19 17.3 63.1 44 5.1 41.3 17.64 0.694
00:24 1024 30.24 853 25.19 17.2 62.9 45 5.1 41.2 17.54 0.691
00:25 1024 30.24 853 25.19 17.1 62.8 45 5.2 41.3 17.45 0.687
00:26 1024 30.24 853 25.19 17 62.7 45 5.1 41.1 17.33 0.682
00:27 1024 30.24 853 25.19 17 62.5 45 5 41 17.29 0.681
00:28 1024 30.24 853 25.19 16.9 62.4 45 5 41 17.27 0.68
00:29 1024 30.24 853 25.19 16.9 62.4 45 5 41.1 17.24 0.679
00:30 1024 30.24 853 25.19 16.9 62.4 45 5 40.9 17.25 0.679
00:31 1024 30.24 853 25.19 16.9 62.4 45 5.1 41.2 17.21 0.678
00:32 1024 30.24 853 25.19 16.8 62.3 46 5.2 41.3 17.16 0.676
00:33 1024 30.24 853 25.19 16.7 62 46 5 41.1 17.02 0.67
00:34 1024 30.24 853 25.19 16.6 61.8 46 5.1 41.3 16.93 0.667
00:35 1024 30.24 853 25.19 16.5 61.7 46 5.1 41.2 16.84 0.663
00:36 1024 30.24 853 25.19 16.5 61.6 46 5 41 16.79 0.661
00:37 1024 30.24 853 25.19 16.5 61.6 46 5 41 16.78 0.661
00:38 1024 30.24 853 25.19 16.5 61.7 46 5 41 16.82 0.662
00:39 1024 30.24 853 25.19 16.5 61.6 46 5 41 16.8 0.661
00:40 1024 30.24 853 25.19 16.5 61.7 46 5 40.9 16.8 0.661
00:41 1024 30.24 853 25.19 16.5 61.7 46 4.9 40.8 16.82 0.662
00:42 1024 30.24 853 25.19 16.6 61.9 46 4.9 40.8 16.91 0.666
00:43 1024 30.24 853 25.19 16.7 62.1 45 4.9 40.9 17 0.669
00:44 1024 30.24 853 25.19 16.8 62.2 45 4.9 40.8 17.08 0.672
00:45 1024 30.24 853 25.19 16.8 62.2 45 4.9 40.9 17.09 0.673
00:46 1024 30.24 853 25.19 16.7 62.1 46 5 41.1 17.07 0.672
00:47 1024 30.24 853 25.19 16.7 62 46 5 41 17 0.669
00:48 1024 30.24 853 25.19 16.7 62.1 46 5.1 41.1 17.01 0.67
00:49 1024 30.24 853 25.19 16.7 62 46 5.2 41.3 16.95 0.667
00:50 1024 30.24 853 25.19 16.6 61.8 47 5.2 41.3 16.89 0.665
00:51 1024 30.24 853 25.19 16.6 61.8 46 5.1 41.1 16.9 0.665
00:52 1024 30.24 853 25.19 16.5 61.8 46 5.1 41.2 16.88 0.665
00:53 1024 30.24 853 25.19 16.5 61.7 46 5 40.9 16.83 0.663
00:54 1024 30.24 853 25.19 16.6 61.8 45 4.7 40.5 16.86 0.664
00:55 1024 30.24 853 25.19 16.7 62 45 4.9 40.9 16.95 0.667
00:56 1024 30.24 853 25.19 16.6 61.9 46 5 40.9 16.9 0.665
00:57 1024 30.24 853 25.19 16.5 61.7 46 5.1 41.1 16.8 0.661
00:58 1024 30.24 853 25.19 16.4 61.5 46 4.8 40.7 16.75 0.659
00:59 1024 30.24 853 25.19 16.4 61.5 46 4.8 40.7 16.7 0.657
01:00 1024 30.24 853 25.19 16.3 61.4 46 4.9 40.8 16.64 0.655
01:01 1024 30.24 853 25.19 16.3 61.3 46 4.7 40.4 16.62 0.654
01:02 1024 30.24 853 25.19 16.2 61.2 46 4.6 40.2 16.56 0.652
01:03 1024 30.24 853 25.19 16.2 61.2 45 4.5 40 16.59 0.653
01:04 1024 30.24 853 25.19 16.2 61.2 45 4.5 40.1 16.53 0.651
01:05 1024 30.24 853 25.19 16.1 61 46 4.5 40.1 16.44 0.647
01:06 1024 30.24 853 25.19 16 60.9 46 4.5 40 16.36 0.644
01:07 1024 30.24 853 25.19 16 60.7 46 4.4 39.9 16.29 0.641
01:08 1024 30.24 853 25.19 15.9 60.7 46 4.5 40.1 16.3 0.642
01:09 1024 30.24 853 25.19 15.9 60.6 46 4.5 40.1 16.24 0.639
01:10 1024 30.24 853 25.19 16 60.7 47 4.7 40.4 16.28 0.641
01:11 1024 30.24 853 25.19 16.1 60.9 47 4.7 40.5 16.36 0.644
01:12 1024 30.24 853 25.19 16.1 60.9 46 4.5 40.1 16.43 0.647
01:13 1024 30.24 853 25.19 16.2 61.2 46 4.6 40.3 16.5 0.65
01:14 1024 30.24 853 25.19 16.3 61.4 45 4.6 40.2 16.61 0.654
01:15 1024 30.24 853 25.19 16.5 61.6 45 4.5 40.1 16.73 0.659
01:16 1024 30.24 853 25.19 16.6 61.8 45 4.7 40.5 16.82 0.662
01:17 1024 30.24 853 25.19 16.6 61.8 45 4.7 40.4 16.82 0.662
01:18 1024 30.24 853 25.19 16.5 61.8 46 4.9 40.8 16.84 0.663
01:19 1024 30.24 853 25.19 16.5 61.6 47 5.1 41.1 16.78 0.661
01:20 1024 30.24 853 25.19 16.3 61.4 48 5.5 41.8 16.62 0.654
01:21 1024 30.24 853 25.19 16.1 60.9 49 5.3 41.6 16.44 0.647
01:22 1024 30.24 853 25.19 16 60.8 50 5.6 42 16.33 0.643
01:23 1024 30.24 853 25.19 15.9 60.6 50 5.5 41.9 16.25 0.64
01:24 1024 30.24 853 25.19 15.7 60.3 51 5.7 42.3 16.09 0.633
01:25 1024 30.24 853 25.19 15.5 59.9 52 5.7 42.3 15.89 0.626
01:26 1024 30.24 853 25.19 15.3 59.5 52 5.7 42.2 15.64 0.616
01:27 1024 30.24 853 25.19 15.1 59.3 53 5.7 42.2 15.54 0.612
01:28 1024 30.24 853 25.19 15 59 54 5.8 42.4 15.42 0.607
01:29 1024 30.24 853 25.19 14.9 58.7 54 5.6 42.1 15.24 0.6
01:30 1024 30.24 853 25.19 14.8 58.6 54 5.6 42.1 15.19 0.598
01:31 1024 30.24 853 25.19 14.8 58.6 54 5.7 42.3 15.12 0.595
01:32 1024 30.24 853 25.19 14.7 58.4 54 5.7 42.2 15.07 0.593
01:33 1024 30.24 853 25.19 14.6 58.4 55 5.7 42.3 15.01 0.591
01:34 1024 30.24 853 25.19 14.6 58.2 55 5.6 42 14.9 0.587
01:35 1024 30.24 853 25.19 14.5 58.2 55 5.6 42 14.88 0.586
01:36 1024 30.24 853 25.19 14.6 58.3 54 5.5 41.9 14.94 0.588
01:37 1024 30.24 853 25.19 14.6 58.4 54 5.6 42.1 14.95 0.589
01:38 1024 30.24 853 25.19 14.6 58.3 54 5.6 42 14.98 0.59
01:39 1024 30.24 853 25.19 14.7 58.5 54 5.6 42 15.07 0.593
01:40 1024 30.24 853 25.19 14.8 58.6 54 5.6 42.2 15.13 0.596
01:41 1024 30.24 853 25.19 14.8 58.6 53 5.4 41.7 15.17 0.597
01:42 1024 30.24 853 25.19 14.9 58.8 53 5.4 41.8 15.29 0.602
01:43 1024 30.24 853 25.19 15 59 52 5.4 41.8 15.35 0.604
01:44 1024 30.24 853 25.19 15 59 53 5.6 42 15.32 0.603
01:45 1024 30.24 853 25.19 14.9 58.7 53 5.5 41.9 15.2 0.598
01:46 1024 30.24 853 25.19 14.8 58.6 53 5.4 41.7 15.16 0.597
01:47 1024 30.24 853 25.19 14.8 58.6 54 5.5 41.9 15.11 0.595
01:48 1024 30.24 853 25.19 14.7 58.4 54 5.5 42 15.02 0.591
01:49 1024 30.24 853 25.19 14.5 58 55 5.7 42.2 14.81 0.583
01:50 1024 30.24 853 25.19 14.2 57.6 57 5.8 42.4 14.6 0.575
01:51 1024 30.24 854 25.22 14 57.2 57 5.8 42.4 14.4 0.567
01:52 1024 30.24 853 25.19 13.8 56.9 58 5.9 42.6 14.22 0.56
01:53 1024 30.24 853 25.19 13.6 56.4 60 5.9 42.7 13.94 0.549
01:54 1024 30.24 853 25.19 13.3 56 61 5.9 42.7 13.74 0.541
01:55 1024 30.24 853 25.19 13.1 55.6 61 5.9 42.6 13.55 0.533
01:56 1024 30.24 853 25.19 13 55.3 62 5.9 42.6 13.39 0.527
01:57 1024 30.24 853 25.19 12.8 55 63 5.9 42.7 13.2 0.52
01:58 1024 30.24 853 25.19 12.6 54.8 63 5.9 42.5 13.06 0.514
01:59 1024 30.24 853 25.19 12.6 54.7 63 5.9 42.6 12.95 0.51
02:00 1024 30.24 853 25.19 12.5 54.6 64 5.9 42.6 12.95 0.51
02:01 1024 30.24 853 25.19 12.5 54.5 63 5.8 42.5 12.85 0.506
02:02 1024 30.24 853 25.19 12.5 54.4 63 5.6 42.1 12.85 0.506
02:03 1024 30.24 853 25.19 12.5 54.5 62 5.6 42 12.85 0.506
02:04 1024 30.24 853 25.19 12.5 54.6 61 5.3 41.5 12.84 0.506
02:05 1024 30.24 853 25.19 12.7 54.8 60 5.1 41.2 13.01 0.512
02:06 1024 30.24 853 25.19 13 55.4 58 5 41 13.23 0.521
02:07 1024 30.24 853 25.19 13.3 56 57 5 41 13.49 0.531
02:08 1024 30.24 853 25.19 13.6 56.4 56 5 41.1 13.73 0.541
02:09 1024 30.24 853 25.19 13.8 56.8 55 5 41.1 13.99 0.551
02:10 1024 30.24 853 25.19 14 57.2 55 5.2 41.4 14.2 0.559
02:11 1024 30.24 853 25.19 14.1 57.3 55 5.3 41.6 14.28 0.562
02:12 1024 30.24 853 25.19 14.1 57.3 55 5.3 41.5 14.32 0.564
02:13 1024 30.24 853 25.19 14.1 57.4 55 5.3 41.5 14.39 0.567
02:14 1024 30.24 853 25.19 14.2 57.6 55 5.3 41.6 14.42 0.568
02:15 1024 30.24 853 25.19 14.2 57.6 55 5.3 41.6 14.51 0.571
02:16 1024 30.24 853 25.19 14.2 57.5 55 5.3 41.5 14.49 0.57
02:17 1024 30.24 853 25.19 14.2 57.6 55 5.3 41.5 14.51 0.571
02:18 1024 30.24 853 25.19 14.3 57.7 55 5.3 41.6 14.58 0.574
02:19 1024 30.24 853 25.19 14.3 57.8 55 5.4 41.7 14.62 0.576
02:20 1024 30.24 853 25.19 14.4 58 55 5.5 41.9 14.66 0.577
02:21 1024 30.24 853 25.19 14.4 57.9 55 5.5 42 14.69 0.578
02:22 1024 30.24 853 25.19 14.4 58 55 5.5 41.9 14.72 0.58
02:23 1024 30.24 853 25.19 14.4 58 55 5.5 42 14.71 0.579
02:24 1024 30.24 853 25.19 14.4 57.9 55 5.5 42 14.69 0.578
02:25 1024 30.24 853 25.19 14.4 57.9 55 5.5 41.9 14.75 0.581
02:26 1024 30.24 853 25.19 14.4 57.9 55 5.5 42 14.72 0.58
02:27 1024 30.24 853 25.19 14.4 57.9 55 5.6 42.1 14.67 0.578
02:28 1024 30.24 853 25.19 14.3 57.7 55 5.6 42 14.59 0.574
02:29 1024 30.24 853 25.19 14.2 57.5 55 5.4 41.8 14.5 0.571
02:30 1024 30.24 853 25.19 14.2 57.5 55 5.4 41.7 14.46 0.569
02:31 1024 30.24 853 25.19 14.3 57.7 55 5.4 41.7 14.55 0.573
02:32 1024 30.24 853 25.19 14.4 57.9 54 5.2 41.4 14.67 0.578
02:33 1024 30.24 853 25.19 14.6 58.3 53 5.2 41.3 14.93 0.588
02:34 1024 30.24 853 25.19 14.9 58.7 52 5.2 41.4 15.12 0.595
02:35 1024 30.24 853 25.19 15 59 52 5.2 41.4 15.27 0.601
02:36 1024 30.24 853 25.19 15.2 59.3 51 5.3 41.5 15.44 0.608
02:37 1024 30.24 853 25.19 15.3 59.5 51 5.2 41.4 15.48 0.609
02:38 1024 30.24 853 25.19 15.3 59.6 50 5.1 41.1 15.61 0.615
02:39 1024 30.24 853 25.19 15.5 59.9 49 5.1 41.1 15.75 0.62
02:40 1024 30.24 853 25.19 15.6 60.1 49 5.1 41.2 15.83 0.623
02:41 1024 30.24 853 25.19 15.6 60 49 5.1 41.2 15.81 0.622
02:42 1024 30.24 853 25.19 15.6 60.1 49 5.1 41.2 15.83 0.623
02:43 1024 30.24 853 25.19 15.5 60 50 5.2 41.4 15.81 0.622
02:44 1024 30.24 854 25.22 15.5 59.8 50 5.1 41.3 15.72 0.619
02:45 1024 30.24 854 25.22 15.4 59.6 54 6.2 43.1 15.68 0.617
02:46 1024 30.24 853 25.19 14.9 58.9 57 6.4 43.6 15.36 0.605
02:47 1024 30.24 854 25.22 14.3 57.8 58 6.2 43.2 14.88 0.586
02:48 1024 30.24 853 25.19 13.9 57.1 58 5.9 42.6 14.47 0.57
02:49 1024 30.24 853 25.19 13.8 56.8 59 6 42.8 14.2 0.559
02:50 1024 30.24 853 25.19 13.6 56.4 59 5.7 42.2 13.99 0.551
02:51 1024 30.24 853 25.19 13.5 56.3 58 5.4 41.6 13.83 0.544
02:52 1024 30.24 853 25.19 13.6 56.4 57 5.4 41.7 13.85 0.545
02:53 1024 30.24 853 25.19 13.6 56.4 58 5.5 41.8 13.86 0.546
02:54 1024 30.24 853 25.19 13.6 56.5 59 5.8 42.4 13.93 0.548
02:55 1024 30.24 853 25.19 13.5 56.4 60 6 42.8 13.85 0.545
02:56 1024 30.24 853 25.19 13.2 55.7 61 5.8 42.5 13.55 0.533
02:57 1024 30.24 853 25.19 12.9 55.3 61 5.7 42.3 13.31 0.524
02:58 1024 30.24 853 25.19 12.8 55 62 5.8 42.5 13.12 0.517
02:59 1024 30.24 853 25.19 12.5 54.5 64 5.8 42.5 12.89 0.507
03:00 1024 30.24 853 25.19 12.3 54.2 65 6 42.8 12.73 0.501
03:01 1024 30.24 853 25.19 12.1 53.8 67 6.1 43 12.55 0.494
03:02 1024 30.24 853 25.19 11.8 53.3 68 6.2 43.2 12.29 0.484
03:03 1024 30.24 853 25.19 11.6 52.8 70 6.3 43.4 12.01 0.473
03:04 1024 30.24 853 25.19 11.3 52.4 71 6.3 43.4 11.79 0.464
03:05 1024 30.24 853 25.19 11.2 52.1 72 6.3 43.3 11.62 0.457
03:06 1024 30.24 853 25.19 11.1 52 71 6.2 43.1 11.57 0.456
03:07 1024 30.24 853 25.19 11.2 52.1 71 6.2 43.1 11.59 0.456
03:08 1024 30.24 853 25.19 11.2 52.2 71 6.1 43.1 11.6 0.457
03:09 1024 30.24 854 25.22 11.2 52.1 71 6.1 43 11.64 0.458
03:10 1024 30.24 853 25.19 11.2 52.2 71 6.2 43.1 11.64 0.458
03:11 1024 30.24 854 25.22 11.2 52.2 71 6.1 43 11.7 0.461
03:12 1024 30.24 854 25.22 11.3 52.4 70 6.1 42.9 11.77 0.463
03:13 1024 30.24 854 25.22 11.5 52.6 69 6 42.9 11.89 0.468
03:14 1024 30.24 854 25.22 11.6 53 68 6 42.9 12.09 0.476
03:15 1024 30.24 854 25.22 11.9 53.3 68 6.1 43 12.27 0.483
03:16 1024 30.24 854 25.22 12 53.6 67 6.1 43 12.41 0.489
03:17 1024 30.24 854 25.22 12.2 53.9 67 6.3 43.4 12.57 0.495
03:18 1024 30.24 854 25.22 12.2 53.9 68 6.4 43.5 12.59 0.496
03:19 1024 30.24 854 25.22 12.2 54 67 6.4 43.5 12.61 0.496
03:20 1024 30.24 854 25.22 12.3 54.1 67 6.4 43.5 12.64 0.498
03:21 1024 30.24 854 25.22 12.3 54.1 67 6.3 43.3 12.66 0.498
03:22 1024 30.24 853 25.19 12.4 54.3 66 6.3 43.4 12.76 0.502
03:23 1024 30.24 853 25.19 12.5 54.5 66 6.4 43.5 12.87 0.507
03:24 1024 30.24 854 25.22 12.5 54.6 66 6.4 43.6 12.89 0.507
03:25 1024 30.24 854 25.22 12.5 54.5 67 6.5 43.7 12.85 0.506
03:26 1024 30.24 854 25.22 12.4 54.3 67 6.5 43.7 12.78 0.503
03:27 1024 30.24 853 25.19 12.2 54 68 6.5 43.7 12.65 0.498
03:28 1024 30.24 854 25.22 11.9 53.3 69 6.5 43.7 12.33 0.485
03:29 1024 30.24 854 25.22 11.7 53 70 6.4 43.5 12.1 0.476
03:30 1024 30.24 854 25.22 11.6 53 70 6.4 43.5 12 0.472
03:31 1024 30.24 853 25.19 11.5 52.6 71 6.3 43.4 11.82 0.465
03:32 1024 30.24 853 25.19 11.2 52.2 72 6.4 43.6 11.52 0.454
03:33 1024 30.24 853 25.19 11.1 51.9 72 6.2 43.1 11.36 0.447
03:34 1024 30.24 853 25.19 10.9 51.5 73 6.1 43.1 11.14 0.439
03:35 1024 30.24 853 25.19 10.8 51.4 72 6 42.8 11.07 0.436
03:36 1024 30.24 853 25.19 10.8 51.4 71 5.8 42.4 10.99 0.433
03:37 1024 30.24 853 25.19 10.5 50.9 72 5.8 42.4 10.77 0.424
03:38 1024 30.24 853 25.19 10.3 50.5 74 5.8 42.4 10.59 0.417
03:39 1024 30.24 853 25.19 10.4 50.7 73 5.7 42.3 10.67 0.42
03:40 1024 30.24 853 25.19 11 51.9 69 5.6 42.1 11.29 0.444
03:41 1024 30.24 853 25.19 11.5 52.8 68 5.8 42.4 11.73 0.462
03:42 1024 30.24 853 25.19 11.5 52.7 68 5.8 42.4 11.76 0.463
03:43 1024 30.24 853 25.19 11.6 52.8 67 5.8 42.4 11.84 0.466
03:44 1024 30.24 853 25.19 11.8 53.2 67 5.9 42.6 12.01 0.473
03:45 1024 30.24 853 25.19 11.8 53.2 67 5.9 42.6 11.99 0.472
03:46 1024 30.24 853 25.19 11.7 53.1 67 5.9 42.6 12.01 0.473
03:47 1024 30.24 853 25.19 11.7 53 68 5.9 42.6 12 0.472
03:48 1024 30.24 853 25.19 11.5 52.6 69 5.9 42.7 11.83 0.466
03:49 1024 30.24 853 25.19 11 51.7 71 5.9 42.6 11.43 0.45
03:50 1024 30.24 853 25.19 10.6 51.1 72 5.9 42.6 11.08 0.436
03:51 1024 30.24 853 25.19 10.7 51.3 71 5.7 42.2 11.07 0.436
03:52 1024 30.24 853 25.19 10.9 51.5 71 5.8 42.4 11.12 0.438
03:53 1024 30.24 853 25.19 10.6 51 72 5.7 42.3 10.94 0.431
03:54 1024 30.24 853 25.19 10.6 51.1 71 5.6 42.1 10.91 0.43
03:55 1024 30.24 853 25.19 10.5 50.9 72 5.7 42.3 10.76 0.424
03:56 1024 30.24 853 25.19 10.2 50.4 73 5.7 42.2 10.59 0.417
03:57 1024 30.24 853 25.19 10.2 50.3 74 5.7 42.2 10.47 0.412
03:58 1024 30.24 853 25.19 10.1 50.2 74 5.7 42.3 10.45 0.411
03:59 1024 30.24 853 25.19 10.1 50.1 74 5.7 42.3 10.4 0.409
04:00 1024 30.24 853 25.19 10.1 50.1 74 5.7 42.3 10.34 0.407
04:01 1024 30.24 853 25.19 10 49.9 75 5.7 42.3 10.31 0.406
04:02 1024 30.24 853 25.19 9.8 49.6 75 5.7 42.2 10.2 0.402
04:03 1024 30.24 853 25.19 9.6 49.4 76 5.7 42.2 10.09 0.397
04:04 1024 30.24 853 25.19 9.6 49.2 77 5.7 42.2 10.04 0.395
04:05 1024 30.24 853 25.19 9.6 49.2 77 5.7 42.3 9.98 0.393
04:06 1024 30.24 853 25.19 9.6 49.2 77 5.7 42.3 9.95 0.392
04:07 1024 30.24 853 25.19 9.6 49.2 77 5.7 42.3 9.92 0.391
04:08 1024 30.24 853 25.19 9.5 49.2 77 5.7 42.3 9.89 0.389
04:09 1024 30.24 853 25.19 9.6 49.2 77 5.7 42.2 9.9 0.39
04:10 1024 30.24 853 25.19 9.5 49.2 77 5.7 42.3 9.9 0.39
04:11 1024 30.24 853 25.19 9.7 49.4 77 5.8 42.4 9.99 0.393
04:12 1024 30.24 853 25.19 9.8 49.6 75 5.6 42.1 10.06 0.396
04:13 1024 30.24 853 25.19 10.1 50.1 74 5.7 42.2 10.24 0.403
04:14 1024 30.24 853 25.19 10.2 50.4 73 5.6 42.1 10.37 0.408
04:15 1024 30.24 853 25.19 10.3 50.5 73 5.6 42.1 10.39 0.409
04:16 1024 30.24 853 25.19 10.1 50.2 74 5.7 42.2 10.33 0.407
04:17 1024 30.24 853 25.19 9.9 49.9 74 5.6 42.1 10.23 0.403
04:18 1024 30.24 853 25.19 9.8 49.7 75 5.6 42 10.12 0.398
04:19 1024 30.24 853 25.19 9.8 49.6 75 5.6 42.2 10.05 0.396
04:20 1024 30.24 853 25.19 9.8 49.7 75 5.6 42.2 10.08 0.397
04:21 1024 30.24 853 25.19 9.9 49.9 74 5.6 42.1 10.16 0.4
04:22 1024 30.24 853 25.19 10 50.1 74 5.6 42.1 10.24 0.403
04:23 1024 30.24 853 25.19 10 49.9 75 5.7 42.2 10.24 0.403
04:24 1024 30.24 853 25.19 9.9 49.7 75 5.7 42.3 10.19 0.401
04:25 1024 30.24 853 25.19 9.8 49.7 75 5.7 42.2 10.16 0.4
04:26 1024 30.24 853 25.19 9.9 49.8 75 5.7 42.3 10.17 0.4
04:27 1024 30.24 853 25.19 9.9 49.8 76 5.8 42.4 10.21 0.402
04:28 1024 30.24 853 25.19 9.9 49.7 76 5.8 42.5 10.15 0.4
04:29 1024 30.24 853 25.19 9.8 49.7 76 5.8 42.4 10.1 0.398
04:30 1024 30.24 853 25.19 9.7 49.5 76 5.7 42.3 10.08 0.397
04:31 1024 30.24 853 25.19 9.7 49.4 77 5.7 42.3 9.98 0.393
04:32 1024 30.24 853 25.19 9.5 49.1 77 5.7 42.2 9.9 0.39
04:33 1024 30.24 853 25.19 9.5 49.1 77 5.7 42.2 9.86 0.388
04:34 1024 30.24 853 25.19 9.5 49.1 77 5.7 42.3 9.85 0.388
04:35 1024 30.24 853 25.19 9.5 49.1 77 5.7 42.2 9.84 0.387
04:36 1024 30.24 853 25.19 9.5 49 77 5.7 42.3 9.79 0.385
04:37 1024 30.24 853 25.19 9.4 48.9 77 5.6 42.1 9.75 0.384
04:38 1024 30.24 853 25.19 9.3 48.8 78 5.6 42.1 9.7 0.382
04:39 1024 30.24 853 25.19 9.2 48.6 78 5.5 42 9.61 0.378
04:40 1024 30.24 853 25.19 9.1 48.5 78 5.5 41.9 9.54 0.376
04:41 1024 30.24 853 25.19 9 48.2 79 5.5 42 9.41 0.37
04:42 1024 30.24 853 25.19 8.8 47.9 79 5.5 41.9 9.27 0.365
04:43 1024 30.24 853 25.19 8.7 47.7 80 5.5 42 9.14 0.36
04:44 1024 30.24 853 25.19 8.6 47.5 82 5.6 42.1 9.05 0.356
04:45 1024 30.24 853 25.19 8.6 47.5 81 5.6 42.2 9.06 0.357
04:46 1024 30.24 853 25.19 8.8 47.8 81 5.6 42.1 9.17 0.361
04:47 1024 30.24 853 25.19 9 48.2 80 5.7 42.3 9.3 0.366
04:48 1024 30.24 853 25.19 9.2 48.6 79 5.7 42.2 9.52 0.375
04:49 1024 30.24 853 25.19 9.4 48.9 78 5.8 42.4 9.65 0.38
04:50 1024 30.24 853 25.19 9.4 49 78 5.7 42.3 9.7 0.382
04:51 1024 30.24 853 25.19 9.4 48.9 78 5.7 42.3 9.67 0.381
04:52 1024 30.24 853 25.19 9.2 48.5 79 5.8 42.4 9.59 0.378
04:53 1024 30.24 853 25.19 9 48.2 80 5.8 42.4 9.47 0.373
04:54 1024 30.24 853 25.19 8.9 48 81 5.8 42.4 9.35 0.368
04:55 1024 30.24 853 25.19 8.9 47.9 81 5.8 42.4 9.29 0.366
04:56 1024 30.24 853 25.19 8.8 47.9 81 5.8 42.4 9.25 0.364
04:57 1024 30.24 853 25.19 8.8 47.9 82 5.9 42.6 9.21 0.363
04:58 1024 30.24 853 25.19 8.8 47.9 82 5.9 42.6 9.18 0.361
04:59 1024 30.24 853 25.19 8.8 47.8 82 5.8 42.5 9.15 0.36
05:00 1024 30.24 853 25.19 8.8 47.9 82 5.9 42.6 9.2 0.362
05:01 1024 30.24 853 25.19 8.8 47.9 82 5.8 42.5 9.2 0.362
05:02 1024 30.24 853 25.19 8.8 47.9 82 5.9 42.6 9.2 0.362
05:03 1024 30.24 853 25.19 8.8 47.8 82 5.9 42.6 9.19 0.362
05:04 1024 30.24 853 25.19 8.8 47.8 82 5.9 42.6 9.15 0.36
05:05 1024 30.24 853 25.19 8.7 47.7 83 6 42.7 9.11 0.359
05:06 1024 30.24 853 25.19 8.7 47.6 83 6 42.8 9.08 0.357
05:07 1024 30.24 853 25.19 8.7 47.6 83 6 42.8 9.06 0.357
05:08 1024 30.24 853 25.19 8.7 47.6 83 6 42.8 9.08 0.357
05:09 1024 30.24 853 25.19 8.6 47.6 83 6 42.8 9.04 0.356
05:10 1024 30.24 853 25.19 8.7 47.6 83 6 42.9 9.07 0.357
05:11 1024 30.24 853 25.19 8.7 47.6 84 6.1 42.9 9.04 0.356
05:12 1024 30.24 853 25.19 8.6 47.6 83 6 42.7 9.02 0.355
05:13 1024 30.24 853 25.19 8.7 47.6 83 6 42.7 9.04 0.356
05:14 1024 30.24 853 25.19 8.7 47.7 83 6 42.8 9.06 0.357
05:15 1024 30.24 853 25.19 8.9 48 83 6.1 42.9 9.23 0.363
05:16 1024 30.24 853 25.19 9 48.1 82 6 42.9 9.32 0.367
05:17 1024 30.24 853 25.19 9 48.2 82 6.1 42.9 9.36 0.369
05:18 1024 30.24 853 25.19 9 48.2 81 5.9 42.6 9.34 0.368
05:19 1024 30.24 853 25.19 8.9 48 81 5.8 42.5 9.2 0.362
05:20 1024 30.24 853 25.19 8.8 47.9 82 5.9 42.6 9.2 0.362
05:21 1024 30.24 853 25.19 8.9 48 81 5.8 42.5 9.21 0.363
05:22 1024 30.24 853 25.19 9 48.2 80 5.7 42.3 9.26 0.365
05:23 1024 30.24 853 25.19 9 48.1 80 5.6 42.2 9.26 0.365
05:24 1024 30.24 853 25.19 9.1 48.3 79 5.7 42.2 9.34 0.368
05:25 1024 30.24 853 25.19 9.3 48.7 78 5.6 42.2 9.53 0.375
05:26 1024 30.24 853 25.19 9.3 48.7 78 5.7 42.3 9.55 0.376
05:27 1024 30.24 853 25.19 9.2 48.5 79 5.7 42.3 9.47 0.373
05:28 1024 30.24 853 25.19 9.1 48.3 80 5.8 42.4 9.38 0.369
05:29 1024 30.24 853 25.19 9.1 48.3 80 5.8 42.4 9.37 0.369
05:30 1024 30.24 853 25.19 9 48.2 80 5.8 42.4 9.34 0.368
05:31 1024 30.24 853 25.19 9 48.1 80 5.7 42.2 9.3 0.366
05:32 1024 30.24 853 25.19 8.8 47.9 81 5.7 42.2 9.15 0.36
05:33 1024 30.24 853 25.19 8.7 47.6 81 5.6 42.2 9.07 0.357
05:34 1024 30.24 853 25.19 8.7 47.6 81 5.6 42.2 9.02 0.355
05:35 1024 30.24 853 25.19 8.6 47.4 82 5.6 42.1 9.01 0.355
05:36 1024 30.24 853 25.19 8.6 47.4 82 5.7 42.2 8.92 0.351
05:37 1024 30.24 853 25.19 8.4 47.2 83 5.7 42.2 8.86 0.349
05:38 1024 30.24 853 25.19 8.4 47 83 5.7 42.2 8.8 0.346
05:39 1024 30.24 853 25.19 8.2 46.8 84 5.7 42.3 8.68 0.342
05:40 1024 30.24 853 25.19 8.2 46.7 84 5.6 42.1 8.63 0.34
05:41 1024 30.24 853 25.19 8.2 46.7 84 5.6 42.1 8.6 0.339
05:42 1024 30.24 853 25.19 8.2 46.8 84 5.7 42.3 8.62 0.339
05:43 1024 30.24 853 25.19 8.2 46.8 84 5.7 42.3 8.6 0.339
05:44 1024 30.24 853 25.19 8.3 46.9 84 5.7 42.3 8.62 0.339
05:45 1024 30.24 853 25.19 8.2 46.8 84 5.8 42.4 8.62 0.339
05:46 1024 30.24 853 25.19 8.4 47.1 84 5.8 42.5 8.72 0.343
05:47 1024 30.24 853 25.19 8.6 47.5 82 5.8 42.4 8.87 0.349
05:48 1024 30.24 853 25.19 8.7 47.6 81 5.7 42.2 8.94 0.352
05:49 1024 30.24 853 25.19 8.7 47.6 81 5.6 42.1 8.9 0.35
05:50 1024 30.24 853 25.19 8.5 47.3 82 5.7 42.2 8.86 0.349
05:51 1024 30.24 853 25.19 8.5 47.3 83 5.7 42.3 8.87 0.349
05:52 1024 30.24 853 25.19 8.5 47.3 83 5.7 42.3 8.87 0.349
05:53 1024 30.24 853 25.19 8.6 47.4 82 5.7 42.2 8.89 0.35
05:54 1024 30.24 853 25.19 8.5 47.4 81 5.5 42 8.87 0.349
05:55 1024 30.24 853 25.19 8.5 47.2 82 5.6 42.1 8.82 0.347
05:56 1024 30.24 853 25.19 8.4 47.2 82 5.6 42.1 8.77 0.345
05:57 1024 30.24 853 25.19 8.4 47.1 84 5.8 42.4 8.76 0.345
05:58 1024 30.24 853 25.19 8.6 47.5 83 5.9 42.6 8.97 0.353
05:59 1024 30.24 853 25.19 8.9 48.1 81 5.9 42.6 9.21 0.363
06:00 1024 30.24 853 25.19 9 48.2 81 5.8 42.5 9.29 0.366
06:01 1024 30.24 853 25.19 9 48.3 81 5.9 42.7 9.34 0.368
06:02 1024 30.24 853 25.19 9.1 48.4 80 5.9 42.6 9.41 0.37
06:03 1024 30.24 853 25.19 9.1 48.5 80 5.8 42.4 9.46 0.372
06:04 1024 30.24 853 25.19 9.1 48.4 79 5.7 42.3 9.46 0.372
06:05 1024 30.24 853 25.19 9.1 48.4 78 5.6 42 9.39 0.37
06:06 1024 30.24 853 25.19 8.9 48.1 80 5.6 42.1 9.27 0.365
06:07 1024 30.24 853 25.19 8.8 47.8 80 5.6 42.1 9.13 0.359
06:08 1024 30.24 853 25.19 8.6 47.5 81 5.6 42 9 0.354
06:09 1024 30.24 853 25.19 8.6 47.5 81 5.5 41.9 8.96 0.353
06:10 1024 30.24 853 25.19 8.5 47.3 82 5.6 42.1 8.89 0.35
06:11 1024 30.24 853 25.19 8.5 47.3 82 5.6 42 8.87 0.349
06:12 1024 30.24 853 25.19 8.5 47.3 82 5.6 42 8.87 0.349
06:13 1024 30.24 853 25.19 8.5 47.4 82 5.6 42.1 8.88 0.35
06:14 1024 30.24 853 25.19 8.6 47.5 81 5.6 42.1 8.93 0.352
06:15 1024 30.24 853 25.19 8.7 47.7 81 5.6 42.1 9.03 0.356
06:16 1024 30.24 853 25.19 8.7 47.7 80 5.6 42 9.05 0.356
06:17 1024 30.24 853 25.19 8.6 47.5 81 5.6 42.1 8.93 0.352
06:18 1024 30.24 853 25.19 8.6 47.4 81 5.5 42 8.92 0.351
06:19 1024 30.24 853 25.19 8.5 47.3 82 5.6 42 8.82 0.347
06:20 1024 30.24 853 25.19 8.4 47.2 82 5.5 41.9 8.8 0.346
06:21 1024 30.24 853 25.19 8.5 47.2 82 5.6 42.1 8.77 0.345
06:22 1024 30.24 853 25.19 8.5 47.2 82 5.6 42 8.77 0.345
06:23 1024 30.24 853 25.19 8.4 47.1 82 5.5 41.9 8.71 0.343
06:24 1024 30.24 853 25.19 8.3 46.9 83 5.5 42 8.67 0.341
06:25 1024 30.24 853 25.19 8.2 46.8 83 5.5 42 8.62 0.339
06:26 1024 30.24 853 25.19 8.2 46.7 83 5.5 42 8.61 0.339
06:27 1024 30.24 853 25.19 8.2 46.7 83 5.5 41.9 8.59 0.338
06:28 1024 30.24 853 25.19 8.1 46.6 83 5.4 41.7 8.49 0.334
06:29 1024 30.24 853 25.19 8.1 46.5 83 5.4 41.6 8.4 0.331
06:30 1024 30.24 853 25.19 8 46.3 83 5.3 41.6 8.35 0.329
06:31 1024 30.24 853 25.19 7.9 46.2 84 5.4 41.7 8.28 0.326
06:32 1024 30.24 853 25.19 7.9 46.2 84 5.3 41.5 8.29 0.326
06:33 1024 30.24 853 25.19 8 46.4 84 5.4 41.7 8.38 0.33
06:34 1024 30.24 853 25.19 8.2 46.7 83 5.5 41.8 8.54 0.336
06:35 1024 30.24 853 25.19 8.4 47.1 82 5.5 42 8.73 0.344
06:36 1024 30.24 853 25.19 8.6 47.5 81 5.6 42.1 8.86 0.349
06:37 1024 30.24 853 25.19 8.7 47.7 81 5.7 42.2 9.04 0.356
06:38 1024 30.24 853 25.19 8.9 47.9 81 5.8 42.4 9.15 0.36
06:39 1024 30.24 853 25.19 9.1 48.3 80 5.8 42.4 9.32 0.367
06:40 1024 30.24 853 25.19 9.3 48.7 78 5.7 42.3 9.54 0.376
06:41 1024 30.24 853 25.19 9.5 49.2 77 5.7 42.3 9.75 0.384
06:42 1024 30.24 853 25.19 9.9 49.8 75 5.8 42.4 10.06 0.396
06:43 1024 30.24 853 25.19 10.3 50.5 74 5.8 42.5 10.39 0.409
06:44 1024 30.24 853 25.19 10.4 50.7 73 5.8 42.5 10.57 0.416
06:45 1024 30.24 853 25.19 10.6 51 72 5.8 42.5 10.72 0.422
06:46 1024 30.24 853 25.19 10.7 51.3 72 6 42.7 10.86 0.428
06:47 1024 30.24 853 25.19 10.8 51.5 72 6 42.9 10.94 0.431
06:48 1024 30.24 853 25.19 10.8 51.5 72 6.1 43 11.01 0.433
06:49 1024 30.24 853 25.19 10.8 51.5 73 6.2 43.1 11.02 0.434
06:50 1024 30.24 853 25.19 10.9 51.5 72 6.1 43 11.06 0.435
06:51 1024 30.24 853 25.19 10.9 51.7 72 6.1 43 11.14 0.439
06:52 1024 30.24 853 25.19 10.9 51.6 72 6.1 43 11.14 0.439
06:53 1024 30.24 853 25.19 10.9 51.5 72 6.1 42.9 11.13 0.438
06:54 1024 30.24 853 25.19 10.9 51.6 72 6.1 42.9 11.14 0.439
06:55 1024 30.24 853 25.19 10.9 51.7 72 6 42.9 11.18 0.44
06:56 1024 30.24 853 25.19 11 51.7 72 6.1 43 11.27 0.444
06:57 1024 30.24 853 25.19 10.9 51.6 72 6.1 42.9 11.14 0.439
06:58 1024 30.24 853 25.19 10.8 51.4 73 6.1 42.9 11.11 0.437
06:59 1024 30.24 853 25.19 10.8 51.4 73 6.1 42.9 11.07 0.436
07:00 1024 30.24 853 25.19 10.7 51.3 73 6.1 43 11.02 0.434
07:01 1024 30.24 853 25.19 10.5 51 74 6.1 43 10.89 0.429
07:02 1024 30.24 853 25.19 10.5 50.9 74 6.1 43 10.81 0.426
07:03 1024 30.24 853 25.19 10.5 50.8 74 6.1 43 10.81 0.426
07:04 1024 30.24 853 25.19 10.4 50.8 74 6.1 42.9 10.76 0.424
07:05 1024 30.24 853 25.19 10.4 50.7 74 6 42.9 10.74 0.423
07:06 1024 30.24 853 25.19 10.3 50.6 75 6.1 42.9 10.64 0.419
07:07 1024 30.24 853 25.19 10.2 50.4 75 6 42.8 10.57 0.416
07:08 1024 30.24 853 25.19 10.2 50.3 75 6 42.7 10.49 0.413
07:09 1024 30.24 853 25.19 10.1 50.2 75 5.9 42.6 10.5 0.413
07:10 1024 30.24 853 25.19 10.2 50.4 74 5.9 42.6 10.59 0.417
07:11 1024 30.24 853 25.19 10.3 50.5 74 5.9 42.7 10.62 0.418
07:12 1024 30.24 853 25.19 10.4 50.7 74 6 42.7 10.68 0.42
07:13 1024 30.24 853 25.19 10.4 50.6 74 6 42.7 10.7 0.421
07:14 1024 30.24 853 25.19 10.2 50.4 75 6 42.7 10.57 0.416
07:15 1024 30.24 853 25.19 10.1 50.3 75 6 42.8 10.52 0.414
07:16 1024 30.24 853 25.19 10.1 50.2 75 6 42.8 10.49 0.413
07:17 1024 30.24 853 25.19 10 49.9 76 6 42.8 10.33 0.407
07:18 1024 30.24 853 25.19 9.8 49.6 77 6 42.8 10.19 0.401
07:19 1024 30.24 853 25.19 9.7 49.5 78 6.1 42.9 10.13 0.399
07:20 1024 30.24 853 25.19 9.8 49.6 78 6 42.9 10.18 0.401
07:21 1024 30.24 853 25.19 9.9 49.7 77 6.1 42.9 10.26 0.404
07:22 1024 30.24 853 25.19 9.9 49.8 77 6.2 43.1 10.29 0.405
07:23 1024 30.24 853 25.19 9.9 49.9 77 6.2 43.1 10.35 0.407
07:24 1024 30.24 853 25.19 9.9 49.8 78 6.2 43.2 10.35 0.407
07:25 1024 30.24 853 25.19 9.9 49.7 78 6.2 43.2 10.28 0.405
07:26 1024 30.24 853 25.19 9.8 49.7 78 6.1 43.1 10.28 0.405
07:27 1024 30.24 853 25.19 9.9 49.7 78 6.2 43.2 10.27 0.404
07:28 1024 30.24 853 25.19 9.9 49.8 78 6.3 43.3 10.27 0.404
07:29 1024 30.24 853 25.19 9.9 49.7 78 6.3 43.3 10.29 0.405
07:30 1024 30.24 853 25.19 9.9 49.8 79 6.4 43.5 10.26 0.404
07:31 1024 30.24 853 25.19 9.9 49.8 79 6.4 43.5 10.29 0.405
07:32 1024 30.24 853 25.19 9.9 49.9 78 6.4 43.5 10.35 0.407
07:33 1024 30.24 853 25.19 10 50 78 6.4 43.5 10.39 0.409
07:34 1024 30.24 853 25.19 10.1 50.2 78 6.4 43.6 10.52 0.414
07:35 1024 30.24 853 25.19 10.2 50.3 77 6.4 43.6 10.57 0.416
07:36 1024 30.24 853 25.19 10.3 50.6 77 6.5 43.7 10.68 0.42
07:37 1024 30.24 853 25.19 10.3 50.6 77 6.5 43.7 10.73 0.422
07:38 1024 30.24 853 25.19 10.4 50.6 77 6.5 43.7 10.8 0.425
07:39 1024 30.24 853 25.19 10.4 50.8 77 6.5 43.7 10.81 0.426
07:40 1024 30.24 853 25.19 10.5 50.9 77 6.6 43.9 10.88 0.428
07:41 1024 30.24 853 25.19 10.6 51.1 76 6.6 43.9 10.95 0.431
07:42 1024 30.24 853 25.19 10.6 51.1 75 6.5 43.6 10.97 0.432
07:43 1024 30.24 853 25.19 10.7 51.2 76 6.6 43.8 11.02 0.434
07:44 1024 30.24 853 25.19 10.7 51.3 75 6.5 43.7 11.1 0.437
07:45 1024 30.24 853 25.19 10.9 51.6 75 6.6 43.9 11.22 0.442
07:46 1024 30.24 853 25.19 11.1 52 74 6.7 44 11.4 0.449
07:47 1024 30.24 853 25.19 11.2 52.1 73 6.6 43.9 11.52 0.454
07:48 1024 30.24 853 25.19 11.3 52.3 73 6.7 44.1 11.67 0.459
07:49 1024 30.24 853 25.19 11.4 52.5 73 6.9 44.3 11.76 0.463
07:50 1024 30.24 853 25.19 11.5 52.7 73 6.9 44.4 11.8 0.465
07:51 1024 30.24 853 25.19 11.5 52.7 73 6.9 44.4 11.87 0.467
07:52 1024 30.24 853 25.19 11.6 52.9 73 7 44.5 11.92 0.469
07:53 1024 30.24 853 25.19 11.6 52.9 73 6.9 44.4 11.95 0.47
07:54 1024 30.24 853 25.19 11.7 53.1 72 6.8 44.3 12.04 0.474
07:55 1024 30.24 853 25.19 11.8 53.2 71 6.8 44.2 12.14 0.478
07:56 1024 30.24 853 25.19 11.9 53.4 71 6.9 44.4 12.23 0.481
07:57 1024 30.24 853 25.19 12 53.5 72 7 44.7 12.31 0.485
07:58 1024 30.24 853 25.19 12.1 53.7 70 6.9 44.4 12.41 0.489
07:59 1024 30.24 853 25.19 12.2 53.9 71 7 44.6 12.49 0.492
08:00 1024 30.24 853 25.19 12.3 54.1 71 7.1 44.8 12.64 0.498
08:01 1024 30.24 853 25.19 12.4 54.3 70 7.1 44.8 12.74 0.502
08:02 1024 30.24 853 25.19 12.5 54.4 70 7.1 44.8 12.83 0.505
08:03 1024 30.24 853 25.19 12.6 54.7 70 7.3 45.1 12.97 0.511
08:04 1024 30.24 853 25.19 12.7 54.9 68 7.1 44.8 13.06 0.514
08:05 1024 30.24 853 25.19 12.8 55.1 68 7.2 44.9 13.17 0.519
08:06 1024 30.24 853 25.19 13 55.4 70 7.6 45.7 13.29 0.523
08:07 1024 30.24 853 25.19 13.2 55.7 67 7.3 45.1 13.44 0.529
08:08 1024 30.24 853 25.19 13.4 56.1 65 7 44.7 13.68 0.539
08:09 1024 30.24 853 25.19 13.6 56.5 65 7.2 45 13.89 0.547
08:10 1024 30.24 853 25.19 13.8 56.8 65 7.4 45.3 14.07 0.554
08:11 1024 30.24 853 25.19 13.9 57.1 64 7.3 45.2 14.23 0.56
08:12 1024 30.24 853 25.19 14.1 57.3 64 7.5 45.5 14.35 0.565
08:13 1024 30.24 853 25.19 14.2 57.5 65 7.7 45.9 14.44 0.569
08:14 1024 30.24 853 25.19 14.3 57.7 63 7.3 45.2 14.56 0.573
08:15 1024 30.24 853 25.19 14.4 57.9 62 7.2 44.9 14.66 0.577
08:16 1024 30.24 853 25.19 14.5 58.1 61 7.1 44.8 14.77 0.581
08:17 1024 30.24 853 25.19 14.6 58.2 62 7.4 45.3 14.88 0.586
08:18 1024 30.24 853 25.19 14.7 58.4 62 7.4 45.4 14.97 0.589
08:19 1024 30.24 853 25.19 14.7 58.5 61 7.4 45.3 15.05 0.593
08:20 1024 30.24 853 25.19 14.9 58.8 61 7.4 45.4 15.14 0.596
08:21 1024 30.24 853 25.19 15 59 61 7.7 45.8 15.3 0.602
08:22 1024 30.24 853 25.19 15.2 59.3 60 7.6 45.7 15.43 0.607
08:23 1024 30.24 853 25.19 15.3 59.6 63 8.3 47 15.62 0.615
08:24 1024 30.24 853 25.19 15.3 59.5 63 8.3 46.9 15.69 0.618
08:25 1024 30.24 853 25.19 15.3 59.6 60 7.8 46 15.67 0.617
08:26 1024 30.24 853 25.19 15.4 59.7 59 7.6 45.6 15.75 0.62
08:27 1024 30.24 853 25.19 15.5 59.9 60 7.9 46.2 15.85 0.624
08:28 1024 30.24 853 25.19 15.7 60.2 58 7.5 45.4 15.96 0.628
08:29 1024 30.24 853 25.19 15.8 60.4 58 7.6 45.8 16.12 0.635
08:30 1024 30.24 853 25.19 15.9 60.7 59 8.1 46.6 16.27 0.641
08:31 1024 30.24 853 25.19 16 60.9 59 8.1 46.6 16.34 0.643
08:32 1024 30.24 853 25.19 16.1 61 59 8.3 46.9 16.46 0.648
08:33 1024 30.24 853 25.19 16.2 61.2 60 8.4 47.1 16.56 0.652
08:34 1024 30.24 853 25.19 16.3 61.4 58 8.1 46.5 16.63 0.655
08:35 1024 30.24 853 25.19 16.4 61.4 58 8.3 46.9 16.73 0.659
08:36 1024 30.24 853 25.19 16.5 61.6 62 9.3 48.8 16.81 0.662
08:37 1024 30.24 853 25.19 16.6 61.9 58 8.4 47.2 16.97 0.668
08:38 1024 30.24 853 25.19 16.7 62.1 59 8.9 47.9 17.06 0.672
08:39 1024 30.24 853 25.19 16.9 62.3 58 8.7 47.6 17.18 0.676
08:40 1024 30.24 853 25.19 17 62.6 55 8 46.4 17.29 0.681
08:41 1024 30.24 853 25.19 17.1 62.8 55 8.2 46.7 17.39 0.685
08:42 1024 30.24 853 25.19 17.2 63 57 8.8 47.9 17.49 0.689
08:43 1024 30.24 853 25.19 17.3 63.1 58 9.1 48.3 17.58 0.692
08:44 1024 30.24 853 25.19 17.4 63.3 53 7.9 46.3 17.72 0.698
08:45 1024 30.24 853 25.19 17.6 63.6 55 8.6 47.4 17.86 0.703
08:46 1024 30.24 853 25.19 17.8 64 49 7.1 44.8 18.08 0.712
08:47 1024 30.24 853 25.19 17.9 64.2 50 7.5 45.5 18.25 0.719
08:48 1024 30.24 853 25.19 18.1 64.5 48 7.1 44.8 18.42 0.725
08:49 1024 30.24 853 25.19 18.2 64.7 50 7.6 45.8 18.58 0.731
08:50 1024 30.24 853 25.19 18.3 64.9 47 6.8 44.3 18.67 0.735
08:51 1024 30.24 853 25.19 18.4 65.1 47 7 44.6 18.73 0.737
08:52 1024 30.24 853 25.19 18.5 65.2 49 7.8 46 18.86 0.743
08:53 1024 30.24 853 25.19 18.6 65.4 47 7.3 45.1 18.97 0.747
08:54 1024 30.24 853 25.19 18.6 65.5 49 7.7 45.8 19.04 0.75
08:55 1024 30.24 853 25.19 18.7 65.6 47 7.3 45.1 19.13 0.753
08:56 1024 30.24 853 25.19 18.8 65.8 51 8.4 47.1 19.24 0.757
08:57 1024 30.24 853 25.19 18.8 65.9 46 7 44.6 19.32 0.761
08:58 1024 30.24 853 25.19 18.8 65.8 49 7.9 46.3 19.29 0.759
08:59 1024 30.24 853 25.19 18.8 65.8 50 8.3 46.9 19.21 0.756
09:00 1024 30.24 853 25.19 18.8 65.8 48 7.8 46.1 19.21 0.756
09:01 1024 30.24 853 25.19 18.8 65.8 47 7.2 45 19.23 0.757
09:02 1024 30.24 853 25.19 18.9 65.9 46 7.2 45 19.22 0.757
09:03 1024 30.24 853 25.19 18.9 66 44 6.6 43.9 19.29 0.759
09:04 1024 30.24 853 25.19 19 66.1 51 8.6 47.5 19.34 0.761
09:05 1024 30.24 853 25.19 19.1 66.3 52 9.2 48.6 19.49 0.767
09:06 1024 30.24 853 25.19 19.1 66.4 48 8.1 46.5 19.61 0.772
09:07 1024 30.24 853 25.19 19.2 66.5 47 7.7 45.8 19.65 0.774
09:08 1024 30.24 853 25.19 19.3 66.7 49 8.3 47 19.75 0.778
09:09 1024 30.24 853 25.19 19.4 66.9 47 8 46.3 19.87 0.782
09:10 1024 30.24 853 25.19 19.5 67.2 46 7.9 46.2 20.05 0.789
09:11 1024 30.24 853 25.19 19.7 67.4 46 8 46.5 20.16 0.794
09:12 1024 30.24 853 25.19 19.8 67.6 42 6.7 44 20.18 0.794
09:13 1024 30.24 853 25.19 19.8 67.6 48 8.5 47.3 20.25 0.797
09:14 1024 30.24 853 25.19 19.8 67.7 45 7.7 45.9 20.28 0.798
09:15 1024 30.24 853 25.19 19.8 67.6 47 8.4 47.1 20.3 0.799
09:16 1024 30.24 853 25.19 19.8 67.6 45 7.6 45.6 20.3 0.799
09:17 1024 30.24 853 25.19 19.7 67.4 44 7.4 45.3 20.26 0.798
09:18 1024 30.24 853 25.19 19.6 67.3 44 7.2 45 20.21 0.796
09:19 1024 30.24 853 25.19 19.6 67.3 43 6.7 44 20.14 0.793
09:20 1024 30.24 853 25.19 19.6 67.3 45 7.6 45.6 20.07 0.79
09:21 1024 30.24 853 25.19 19.7 67.4 42 6.6 43.9 20.18 0.794
09:22 1024 30.24 853 25.19 19.8 67.6 43 6.8 44.3 20.2 0.795
09:23 1024 30.24 853 25.19 19.8 67.6 44 7.3 45.1 20.26 0.798
09:24 1024 30.24 853 25.19 19.8 67.7 45 7.8 46.1 20.29 0.799
09:25 1024 30.24 853 25.19 20 67.9 44 7.6 45.6 20.44 0.805
09:26 1024 30.24 853 25.19 20.2 68.4 40 6.3 43.3 20.71 0.815
09:27 1024 30.24 853 25.19 20.4 68.7 43 7.4 45.3 20.8 0.819
09:28 1024 30.24 853 25.19 20.5 68.9 43 7.5 45.5 20.92 0.824
09:29 1024 30.24 853 25.19 20.6 69.1 40 6.7 44 21 0.827
09:30 1024 30.24 853 25.19 20.6 69.2 44 8.2 46.7 21.02 0.828
09:31 1024 30.24 853 25.19 20.8 69.4 44 8.3 46.9 21.09 0.83
09:32 1024 30.24 853 25.19 20.9 69.7 42 7.8 46 21.15 0.833
09:33 1024 30.24 853 25.19 21.1 70 42 7.8 46.1 21.22 0.835
09:34 1024 30.24 853 25.19 21.1 70 40 7.3 45.2 21.26 0.837
09:35 1024 30.24 853 25.19 21.1 69.9 42 7.8 46.1 21.25 0.837
09:36 1024 30.24 853 25.19 21.1 69.9 42 7.9 46.3 21.29 0.838
09:37 1024 30.24 853 25.19 21.1 70.1 41 7.4 45.3 21.38 0.842
09:38 1024 30.24 853 25.19 21.2 70.2 40 7.1 44.8 21.51 0.847
09:39 1024 30.24 853 25.19 21.3 70.3 41 7.6 45.8 21.6 0.85
09:40 1024 30.24 853 25.19 21.5 70.6 41 7.9 46.1 21.83 0.859
09:41 1024 30.24 853 25.19 21.6 71 43 8.7 47.7 21.99 0.866
09:42 1024 30.24 853 25.19 21.7 71.1 38 7 44.7 22.1 0.87
09:43 1024 30.24 853 25.19 21.8 71.2 39 7.4 45.4 22.21 0.874
09:44 1024 30.24 853 25.19 21.8 71.2 37 6.5 43.6 22.29 0.878
09:45 1024 30.24 853 25.19 21.7 71 39 7.2 45 22.24 0.876
09:46 1024 30.24 853 25.19 21.7 71.1 42 8.4 47.2 22.25 0.876
09:47 1024 30.24 853 25.19 21.8 71.2 37 6.7 44.1 22.26 0.876
09:48 1024 30.24 853 25.19 21.8 71.3 41 8.2 46.7 22.24 0.876
09:49 1024 30.24 853 25.19 21.9 71.5 40 8 46.5 22.17 0.873
09:50 1024 30.24 853 25.19 22 71.5 40 8.1 46.5 22.27 0.877
09:51 1024 30.24 853 25.19 21.9 71.3 41 8 46.5 22.3 0.878
09:52 1024 30.24 853 25.19 21.8 71.2 38 7.1 44.7 22.26 0.876
09:53 1024 30.24 853 25.19 21.7 71.1 43 8.6 47.4 22.13 0.871
09:54 1024 30.24 853 25.19 21.7 71.1 39 7.5 45.5 22.16 0.872
09:55 1024 30.24 853 25.19 21.7 71 39 7.3 45.2 22.08 0.869
09:56 1024 30.24 853 25.19 21.6 70.8 40 7.6 45.7 21.9 0.862
09:57 1024 30.24 853 25.19 21.5 70.7 40 7.3 45.2 21.88 0.861
09:58 1024 30.24 853 25.19 21.6 70.9 41 8 46.5 21.94 0.864
09:59 1024 30.24 853 25.19 21.8 71.2 41 8 46.5 22.05 0.868
10:00 1024 30.24 853 25.19 21.9 71.5 38 7 44.6 21.96 0.865
10:01 1024 30.24 853 25.19 22 71.7 36 6.6 43.9 21.93 0.863
10:02 1024 30.24 853 25.19 22.2 71.9 41 8.3 46.9 22.07 0.869
10:03 1024 30.24 853 25.19 22.3 72.1 35 6.3 43.4 22.3 0.878
10:04 1024 30.24 853 25.19 22.3 72.1 34 6 42.7 22.33 0.879
10:05 1024 30.24 853 25.19 22.2 71.9 34 5.7 42.2 22.3 0.878
10:06 1024 30.24 853 25.19 22.2 71.9 33 5.4 41.7 22.33 0.879
10:07 1024 30.24 853 25.19 22.3 72.2 36 6.9 44.3 22.4 0.882
10:08 1024 30.24 853 25.19 22.5 72.6 36 6.9 44.4 22.55 0.888
10:09 1024 30.24 853 25.19 22.6 72.6 35 6.7 44 22.59 0.889
10:10 1024 30.24 853 25.19 22.4 72.4 36 6.7 44.1 22.47 0.885
10:11 1024 30.24 853 25.19 22.4 72.3 39 7.8 46 22.49 0.885
10:12 1024 30.24 853 25.19 22.4 72.3 40 8.3 46.9 22.53 0.887
10:13 1024 30.24 853 25.19 22.4 72.3 38 7.5 45.4 22.54 0.887
10:14 1024 30.24 853 25.19 22.4 72.4 38 7.5 45.6 22.54 0.887
10:15 1024 30.24 853 25.19 22.6 72.7 36 7.1 44.8 22.72 0.894
10:16 1024 30.24 853 25.19 22.7 72.8 39 8.1 46.5 22.87 0.9
10:17 1024 30.24 853 25.19 22.9 73.1 39 8.2 46.8 23.08 0.909
10:18 1024 30.24 853 25.19 22.9 73.3 35 7 44.6 23.17 0.912
10:19 1024 30.24 853 25.19 23.1 73.5 38 8.3 46.9 23.27 0.916
10:20 1024 30.24 853 25.19 23.2 73.7 33 6.3 43.3 23.39 0.921
10:21 1024 30.24 853 25.19 23 73.4 36 7.5 45.5 23.26 0.916
10:22 1024 30.24 853 25.19 23.1 73.6 36 7.6 45.7 23.36 0.92
10:23 1024 30.24 853 25.19 23.2 73.8 34 6.7 44 23.48 0.924
10:24 1024 30.24 853 25.19 23.3 74 33 6.4 43.6 23.49 0.925
10:25 1024 30.24 853 25.19 23.4 74.2 33 6.5 43.7 23.5 0.925
10:26 1024 30.24 853 25.19 23.6 74.4 35 7.3 45.1 23.36 0.92
10:27 1024 30.24 853 25.19 23.6 74.5 39 9.1 48.4 23.34 0.919
10:28 1024 30.24 853 25.19 23.6 74.5 37 8.2 46.8 23.31 0.918
10:29 1024 30.24 853 25.19 23.6 74.4 38 8.7 47.6 23.28 0.917
10:30 1024 30.24 853 25.19 23.6 74.4 36 7.7 45.9 23.34 0.919
10:31 1024 30.24 853 25.19 23.4 74.2 36 7.7 45.9 23.26 0.916
10:32 1024 30.24 853 25.19 23.4 74.1 40 9.4 48.8 23.22 0.914
10:33 1024 30.24 853 25.19 23.3 74 37 7.9 46.2 23.19 0.913
10:34 1024 30.24 853 25.19 23.3 73.9 37 8 46.4 23.08 0.909
10:35 1024 30.24 853 25.19 23.2 73.8 37 8 46.4 23.1 0.909
10:36 1024 30.24 853 25.19 23.2 73.7 34 6.8 44.2 23.21 0.914
10:37 1024 30.24 853 25.19 23.1 73.5 37 7.7 45.9 23.17 0.912
10:38 1024 30.24 853 25.19 23 73.5 39 8.5 47.3 23.17 0.912
10:39 1024 30.24 853 25.19 23 73.5 39 8.5 47.4 23.25 0.915
10:40 1024 30.24 853 25.19 23.1 73.7 36 7.4 45.4 23.31 0.918
10:41 1024 30.24 853 25.19 23.2 73.7 37 7.7 45.9 23.3 0.917
10:42 1024 30.24 853 25.19 23.3 74 37 8.2 46.7 23.35 0.919
10:43 1024 30.24 853 25.19 23.5 74.3 36 7.6 45.7 23.46 0.924
10:44 1024 30.24 853 25.19 23.7 74.7 39 9.1 48.4 23.61 0.93
10:45 1024 30.24 853 25.19 23.9 75 36 8.1 46.5 23.75 0.935
10:46 1024 30.24 853 25.19 24 75.2 34 7.2 45 23.92 0.942
10:47 1024 30.24 853 25.19 24 75.2 36 8.1 46.5 24.02 0.946
10:48 1024 30.24 853 25.19 24 75.2 34 7.4 45.4 23.97 0.944
10:49 1024 30.24 853 25.19 24.1 75.3 40 9.8 49.6 23.99 0.944
10:50 1024 30.24 853 25.19 24.1 75.4 34 7.4 45.3 24.18 0.952
10:51 1024 30.24 853 25.19 24 75.3 36 8.3 46.9 24.21 0.953
10:52 1024 30.24 853 25.19 23.9 75 35 7.7 45.9 24.22 0.954
10:53 1024 30.24 853 25.19 23.9 74.9 36 8 46.4 24.1 0.949
10:54 1024 30.24 853 25.19 23.9 74.9 41 10.1 50.2 24.07 0.948
10:55 1024 30.24 853 25.19 23.8 74.9 40 9.6 49.3 24.08 0.948
10:56 1024 30.24 853 25.19 24 75.1 36 8 46.4 24.19 0.952
10:57 1024 30.24 853 25.19 24.1 75.4 33 7 44.5 24.25 0.955
10:58 1024 30.24 853 25.19 24.2 75.6 33 7.3 45.1 24.2 0.953
10:59 1024 30.24 853 25.19 24.3 75.7 34 7.8 46 24.21 0.953
11:00 1024 30.24 853 25.19 24.2 75.5 36 8.3 46.9 24.27 0.956
11:01 1024 30.24 853 25.19 24.2 75.6 36 8.6 47.5 24.29 0.956
11:02 1024 30.24 853 25.19 24.2 75.6 36 8.3 47 24.33 0.958
11:03 1024 30.24 853 25.19 24.3 75.7 35 8 46.4 24.39 0.96
11:04 1024 30.24 853 25.19 24.5 76 35 8.2 46.8 24.57 0.967
11:05 1024 30.24 853 25.19 24.6 76.2 33 7.6 45.6 24.59 0.968
11:06 1024 30.24 853 25.19 24.5 76.2 35 8.5 47.2 24.39 0.96
11:07 1023 30.21 853 25.19 24.4 76 40 10.2 50.3 24.32 0.957
11:08 1023 30.21 853 25.19 24.4 75.9 35 8.1 46.6 24.34 0.958
11:09 1024 30.24 853 25.19 24.4 75.9 37 9.1 48.4 24.25 0.955
11:10 1023 30.21 853 25.19 24.3 75.7 34 7.7 45.9 24.19 0.952
11:11 1023 30.21 853 25.19 24.1 75.3 32 6.7 44.1 24.12 0.95
11:12 1023 30.21 853 25.19 23.8 74.9 36 8.1 46.6 24.04 0.946
11:13 1023 30.21 853 25.19 23.9 75 35 7.7 45.9 24.09 0.948
11:14 1023 30.21 853 25.19 23.9 75 37 8.7 47.7 24.12 0.95
11:15 1023 30.21 853 25.19 24 75.1 33 7 44.7 24.23 0.954
11:16 1023 30.21 853 25.19 24 75.2 35 7.9 46.1 24.26 0.955
11:17 1023 30.21 853 25.19 24.1 75.3 39 9.4 49 24.33 0.958
11:18 1023 30.21 853 25.19 24.1 75.5 37 8.9 48.1 24.34 0.958
11:19 1023 30.21 853 25.19 24.2 75.6 36 8.3 46.9 24.34 0.958
11:20 1023 30.21 853 25.19 24.3 75.7 34 7.5 45.5 24.36 0.959
11:21 1023 30.21 853 25.19 24.2 75.6 33 7 44.6 24.29 0.956
11:22 1023 30.21 853 25.19 24.3 75.7 35 8.1 46.6 24.32 0.957
11:23 1023 30.21 852 25.16 24.3 75.8 33 7.4 45.3 24.39 0.96
11:24 1023 30.21 852 25.16 24.3 75.8 40 10.3 50.5 24.44 0.962
11:25 1023 30.21 852 25.16 24.3 75.8 35 8.3 46.9 24.4 0.961
11:26 1023 30.21 852 25.16 24.4 75.9 36 8.5 47.3 24.42 0.961
11:27 1023 30.21 852 25.16 24.4 75.9 38 9.4 49 24.41 0.961
11:28 1023 30.21 852 25.16 24.3 75.8 34 7.9 46.2 24.4 0.961
11:29 1023 30.21 852 25.16 24.3 75.8 35 7.9 46.3 24.32 0.957
11:30 1023 30.21 852 25.16 24.4 75.8 37 8.9 48.1 24.42 0.961
11:31 1023 30.21 852 25.16 24.4 76 37 9 48.2 24.52 0.965
11:32 1023 30.21 852 25.16 24.4 76 37 9.1 48.4 24.48 0.964
11:33 1023 30.21 852 25.16 24.4 75.9 33 7.4 45.3 24.44 0.962
11:34 1023 30.21 852 25.16 24.3 75.7 35 8 46.4 24.39 0.96
11:35 1023 30.21 852 25.16 24.3 75.8 32 6.7 44.1 24.36 0.959
11:36 1023 30.21 852 25.16 24.3 75.8 33 7.3 45.1 24.34 0.958
11:37 1023 30.21 852 25.16 24.4 75.8 32 7 44.7 24.39 0.96
11:38 1023 30.21 852 25.16 24.4 75.9 34 7.9 46.2 24.38 0.96
11:39 1023 30.21 852 25.16 24.4 75.9 32 6.7 44.1 24.49 0.964
11:40 1023 30.21 852 25.16 24.4 75.9 37 8.8 47.8 24.43 0.962
11:41 1023 30.21 852 25.16 24.4 75.8 33 7.4 45.4 24.5 0.965
11:42 1023 30.21 852 25.16 24.4 75.8 34 7.9 46.2 24.56 0.967
11:43 1023 30.21 852 25.16 24.4 75.9 33 7.5 45.6 24.67 0.971
11:44 1023 30.21 852 25.16 24.5 76.2 38 9.4 48.9 24.77 0.975
11:45 1023 30.21 852 25.16 24.7 76.4 35 8.5 47.3 24.89 0.98
11:46 1023 30.21 852 25.16 24.9 76.8 33 7.7 45.8 25 0.984
11:47 1023 30.21 852 25.16 25 77 33 7.7 45.9 25.06 0.987
11:48 1023 30.21 852 25.16 25 76.9 30 6.5 43.6 25.04 0.986
11:49 1023 30.21 852 25.16 24.9 76.8 31 7 44.7 25.01 0.985
11:50 1023 30.21 852 25.16 24.9 76.9 34 8.3 47 25.03 0.985
11:51 1023 30.21 852 25.16 25 77 32 7.2 45 25.08 0.987
11:52 1023 30.21 852 25.16 25 77 31 6.9 44.5 25.11 0.989
11:53 1023 30.21 852 25.16 25.1 77.1 32 7.5 45.5 25.12 0.989
11:54 1023 30.21 852 25.16 25.1 77.1 33 7.7 45.9 25.14 0.99
11:55 1023 30.21 852 25.16 25.1 77.1 34 8.4 47.1 25.15 0.99
11:56 1023 30.21 852 25.16 25 77.1 32 7.6 45.8 25.2 0.992
11:57 1023 30.21 852 25.16 25.1 77.1 35 8.7 47.6 25.23 0.993
11:58 1023 30.21 852 25.16 25.1 77.1 32 7.3 45.1 25.29 0.996
11:59 1023 30.21 852 25.16 25.1 77.2 32 7.4 45.4 25.35 0.998
12:00 1023 30.21 852 25.16 25.2 77.3 35 8.8 47.8 25.36 0.998
12:01 1023 30.21 852 25.16 25.3 77.5 35 9.1 48.4 25.41 1
12:02 1023 30.21 852 25.16 25.4 77.6 36 9.5 49 25.57 1.007
12:03 1023 30.21 852 25.16 25.4 77.8 31 7.1 44.8 25.56 1.006
12:04 1023 30.21 852 25.16 25.5 77.9 32 8 46.5 25.61 1.008
12:05 1023 30.21 852 25.16 25.5 77.9 30 6.7 44.1 25.6 1.008
12:06 1023 30.21 852 25.16 25.6 78 33 8.4 47.2 25.6 1.008
12:07 1023 30.21 852 25.16 25.7 78.2 34 8.7 47.6 25.72 1.013
12:08 1023 30.21 852 25.16 25.7 78.3 33 8.7 47.7 25.8 1.016
12:09 1023 30.21 852 25.16 25.8 78.5 33 8.5 47.2 25.95 1.022
12:10 1023 30.21 852 25.16 25.9 78.6 33 8.7 47.6 25.96 1.022
12:11 1023 30.21 852 25.16 25.8 78.5 30 7.2 44.9 25.89 1.019
12:12 1023 30.21 852 25.16 25.8 78.4 31 7.7 45.9 25.83 1.017
12:13 1023 30.21 852 25.16 25.7 78.3 32 8.2 46.8 25.81 1.016
12:14 1023 30.21 852 25.16 25.8 78.4 33 8.5 47.3 25.83 1.017
12:15 1023 30.21 852 25.16 25.8 78.4 31 7.4 45.4 25.86 1.018
12:16 1023 30.21 852 25.16 25.8 78.4 33 8.4 47.1 25.85 1.018
12:17 1023 30.21 852 25.16 25.8 78.4 30 6.9 44.5 25.89 1.019
12:18 1023 30.21 852 25.16 25.8 78.4 34 8.9 48.1 25.88 1.019
12:19 1023 30.21 852 25.16 25.8 78.4 30 7.4 45.2 25.86 1.018
12:20 1023 30.21 852 25.16 25.8 78.5 33 8.5 47.3 25.93 1.021
12:21 1023 30.21 852 25.16 25.9 78.6 32 8.4 47.1 26 1.024
12:22 1023 30.21 852 25.16 25.9 78.7 32 8.4 47.1 26.04 1.025
12:23 1023 30.21 852 25.16 26 78.9 30 7.6 45.7 26.23 1.033
12:24 1023 30.21 852 25.16 26.2 79.2 28 6.8 44.2 26.37 1.038
12:25 1023 30.21 852 25.16 26.3 79.3 30 7.8 46 26.46 1.042
12:26 1023 30.21 852 25.16 26.4 79.5 31 8.4 47.1 26.5 1.043
12:27 1023 30.21 852 25.16 26.5 79.6 29 7.5 45.4 26.53 1.044
12:28 1023 30.21 852 25.16 26.4 79.5 29 7 44.5 26.5 1.043
12:29 1023 30.21 852 25.16 26.4 79.5 30 7.5 45.4 26.49 1.043
12:30 1023 30.21 852 25.16 26.4 79.5 29 7.3 45.1 26.42 1.04
12:31 1023 30.21 852 25.16 26.4 79.4 33 9 48.2 26.41 1.04
12:32 1023 30.21 852 25.16 26.3 79.4 28 6.6 44 26.44 1.041
12:33 1023 30.21 852 25.16 26.4 79.5 32 8.5 47.4 26.5 1.043
12:34 1023 30.21 852 25.16 26.5 79.6 28 6.6 43.8 26.62 1.048
12:35 1023 30.21 852 25.16 26.5 79.7 28 6.7 44 26.57 1.046
12:36 1023 30.21 852 25.16 26.5 79.8 29 7.2 44.9 26.65 1.049
12:37 1023 30.21 852 25.16 26.6 79.9 28 7.1 44.8 26.68 1.05
12:38 1023 30.21 852 25.16 26.7 80 30 8 46.4 26.76 1.054
12:39 1023 30.21 852 25.16 26.7 80 30 7.9 46.2 26.75 1.053
12:40 1023 30.21 852 25.16 26.7 80.1 29 7.7 45.9 26.81 1.056
12:41 1023 30.21 852 25.16 26.8 80.2 28 7.1 44.9 26.81 1.056
12:42 1023 30.21 852 25.16 26.7 80 29 7.6 45.7 26.72 1.052
12:43 1023 30.21 852 25.16 26.6 79.9 28 6.7 44.1 26.67 1.05
12:44 1023 30.21 852 25.16 26.6 79.8 27 6.4 43.5 26.69 1.051
12:45 1023 30.21 852 25.16 26.6 79.9 30 8 46.4 26.71 1.052
12:46 1023 30.21 852 25.16 26.6 80 30 7.8 46.1 26.8 1.055
12:47 1022 30.18 852 25.16 26.7 80.1 27 6.7 44 26.9 1.059
12:48 1022 30.18 852 25.16 26.8 80.3 28 7.2 45 27.07 1.066
12:49 1022 30.18 852 25.16 26.9 80.5 25 5.4 41.8 27.08 1.066
12:50 1022 30.18 852 25.16 26.9 80.5 26 5.9 42.5 27.07 1.066
12:51 1022 30.18 852 25.16 26.8 80.3 27 6.7 44.1 27.01 1.063
12:52 1022 30.18 852 25.16 26.9 80.4 27 6.4 43.6 27.02 1.064
12:53 1022 30.18 852 25.16 27 80.6 28 7 44.6 27.13 1.068
12:54 1022 30.18 852 25.16 27 80.7 25 5.8 42.4 27.15 1.069
12:55 1022 30.18 852 25.16 26.9 80.5 25 5.2 41.4 26.98 1.062
12:56 1022 30.18 852 25.16 26.9 80.5 30 8 46.3 27.07 1.066
12:57 1022 30.18 852 25.16 27 80.6 25 5.7 42.2 27.2 1.071
12:58 1022 30.18 852 25.16 27 80.7 27 6.7 44 27.17 1.07
12:59 1022 30.18 852 25.16 27.1 80.7 26 6.3 43.4 27.22 1.072
13:00 1022 30.18 852 25.16 27.1 80.8 28 7.5 45.5 27.26 1.073
13:01 1022 30.18 852 25.16 27.2 80.9 29 7.7 45.9 27.39 1.078
13:02 1022 30.18 852 25.16 27.4 81.2 25 5.9 42.7 27.51 1.083
13:03 1022 30.18 851 25.13 27.4 81.4 28 7.4 45.2 27.54 1.084
13:04 1022 30.18 852 25.16 27.4 81.4 23 5.1 41.1 27.66 1.089
13:05 1022 30.18 851 25.13 27.4 81.3 25 5.9 42.6 27.61 1.087
13:06 1022 30.18 851 25.13 27.3 81.2 27 6.8 44.2 27.59 1.086
13:07 1022 30.18 851 25.13 27.4 81.3 29 8.3 47 27.58 1.086
13:08 1022 30.18 851 25.13 27.3 81.2 26 6.3 43.3 27.42 1.08
13:09 1022 30.18 851 25.13 27.2 81 26 6.2 43.2 27.32 1.076
13:10 1022 30.18 851 25.13 27.2 81 29 7.7 45.9 27.34 1.076
13:11 1022 30.18 851 25.13 27.3 81.1 25 5.5 41.9 27.46 1.081
13:12 1022 30.18 851 25.13 27.4 81.3 26 6.4 43.6 27.6 1.087
13:13 1022 30.18 851 25.13 27.4 81.4 26 6.6 43.8 27.62 1.087
13:14 1022 30.18 851 25.13 27.4 81.4 26 6.4 43.5 27.62 1.087
13:15 1022 30.18 851 25.13 27.5 81.4 24 5.5 42 27.53 1.084
13:16 1022 30.18 851 25.13 27.4 81.3 24 5.5 41.9 27.59 1.086
13:17 1022 30.18 851 25.13 27.4 81.3 24 5.4 41.6 27.57 1.085
13:18 1022 30.18 851 25.13 27.3 81.2 27 6.9 44.3 27.5 1.083
13:19 1022 30.18 851 25.13 27.5 81.4 27 7.2 44.9 27.67 1.089
13:20 1022 30.18 851 25.13 27.5 81.6 24 5.5 41.8 27.72 1.091
13:21 1022 30.18 851 25.13 27.5 81.5 26 6.4 43.6 27.64 1.088
13:22 1022 30.18 851 25.13 27.4 81.4 25 5.9 42.6 27.65 1.089
13:23 1022 30.18 851 25.13 27.4 81.4 24 5.5 42 27.67 1.089
13:24 1022 30.18 851 25.13 27.6 81.6 24 5.7 42.3 27.76 1.093
13:25 1022 30.18 851 25.13 27.6 81.7 27 7.5 45.4 27.78 1.094
13:26 1022 30.18 851 25.13 27.7 81.8 29 8.4 47.1 27.89 1.098
13:27 1022 30.18 851 25.13 27.8 82 28 7.9 46.2 28.03 1.104
13:28 1022 30.18 851 25.13 27.9 82.2 24 5.8 42.5 28.1 1.106
13:29 1022 30.18 851 25.13 28 82.3 26 6.8 44.2 28.11 1.107
13:30 1022 30.18 851 25.13 28 82.3 25 6.3 43.4 28.09 1.106
13:31 1022 30.18 851 25.13 27.9 82.3 27 7.6 45.6 28.1 1.106
13:32 1022 30.18 851 25.13 28 82.5 27 7.6 45.7 28.18 1.109
13:33 1022 30.18 851 25.13 28.1 82.6 28 8.4 47.1 28.27 1.113
13:34 1022 30.18 851 25.13 28.1 82.6 25 6.8 44.2 28.27 1.113
13:35 1022 30.18 851 25.13 28 82.4 28 8.1 46.6 28.05 1.104
13:36 1022 30.18 851 25.13 27.9 82.2 25 6.5 43.6 28.02 1.103
13:37 1022 30.18 851 25.13 27.8 82.1 29 8.2 46.8 27.97 1.101
13:38 1022 30.18 851 25.13 27.9 82.2 25 6.2 43.1 28 1.102
13:39 1022 30.18 851 25.13 27.8 82 28 8 46.3 27.95 1.1
13:40 1022 30.18 851 25.13 27.8 82 26 6.7 44.1 27.96 1.101
13:41 1022 30.18 851 25.13 27.9 82.1 24 5.7 42.3 27.92 1.099
13:42 1022 30.18 851 25.13 27.9 82.3 24 5.7 42.2 27.96 1.101
13:43 1022 30.18 851 25.13 28 82.4 23 5.1 41.2 28 1.102
13:44 1022 30.18 851 25.13 28.1 82.6 25 6.7 44 28.05 1.104
13:45 1022 30.18 851 25.13 28.3 82.9 24 6.2 43.2 28.23 1.111
13:46 1022 30.18 851 25.13 28.4 83.1 25 6.6 43.8 28.43 1.119
13:47 1022 30.18 851 25.13 28.5 83.3 25 6.8 44.2 28.53 1.123
13:48 1022 30.18 851 25.13 28.4 83 27 7.6 45.8 28.39 1.118
13:49 1022 30.18 851 25.13 28.3 82.9 24 5.9 42.7 28.31 1.115
13:50 1022 30.18 851 25.13 28.2 82.8 22 5 41 28.24 1.112
13:51 1022 30.18 851 25.13 28.2 82.8 24 6.2 43.1 28.23 1.111
13:52 1022 30.18 851 25.13 28.2 82.7 27 7.5 45.5 28.16 1.109
13:53 1022 30.18 851 25.13 28.1 82.6 27 7.4 45.3 28.12 1.107
13:54 1022 30.18 851 25.13 28 82.4 22 4.9 40.8 28.04 1.104
13:55 1022 30.18 851 25.13 27.9 82.2 24 5.8 42.4 28.04 1.104
13:56 1022 30.18 851 25.13 28 82.4 28 7.9 46.2 28.18 1.109
13:57 1022 30.18 851 25.13 28.2 82.8 25 6.8 44.3 28.4 1.118
13:58 1022 30.18 851 25.13 28.3 83 24 5.9 42.6 28.39 1.118
13:59 1022 30.18 851 25.13 28.3 82.9 23 5.3 41.5 28.27 1.113
14:00 1022 30.18 851 25.13 28.2 82.8 24 6 42.7 28.26 1.113
14:01 1022 30.18 851 25.13 28.1 82.6 23 5.4 41.7 28.39 1.118
14:02 1022 30.18 851 25.13 28.2 82.8 26 7.2 45 28.56 1.124
14:03 1022 30.18 851 25.13 28.4 83.2 26 7.4 45.4 28.76 1.132
14:04 1022 30.18 851 25.13 28.5 83.2 25 6.7 44 28.71 1.13
14:05 1022 30.18 851 25.13 28.4 83.2 24 6.4 43.5 28.56 1.124
14:06 1022 30.18 851 25.13 28.3 82.9 22 5 40.9 28.35 1.116
14:07 1022 30.18 851 25.13 28.2 82.8 23 5.4 41.7 28.35 1.116
14:08 1022 30.18 851 25.13 28.3 82.9 23 5.2 41.4 28.47 1.121
14:09 1022 30.18 851 25.13 28.3 83 25 7 44.6 28.54 1.124
14:10 1022 30.18 851 25.13 28.4 83 23 5.7 42.3 28.56 1.124
14:11 1022 30.18 851 25.13 28.3 83 23 5.6 42 28.53 1.123
14:12 1022 30.18 851 25.13 28.4 83.2 21 4.7 40.4 28.65 1.128
14:13 1022 30.18 851 25.13 28.6 83.4 25 6.9 44.3 28.71 1.13
14:14 1022 30.18 851 25.13 28.6 83.5 24 6.5 43.7 28.61 1.126
14:15 1022 30.18 851 25.13 28.5 83.2 27 8 46.4 28.53 1.123
14:16 1022 30.18 851 25.13 28.4 83.2 24 6 42.9 28.54 1.124
14:17 1022 30.18 851 25.13 28.4 83.2 21 4.3 39.7 28.48 1.121
14:18 1022 30.18 851 25.13 28.3 83 22 4.7 40.4 28.45 1.12
14:19 1022 30.18 851 25.13 28.4 83.1 25 6.9 44.3 28.46 1.12
14:20 1022 30.18 851 25.13 28.4 83.2 27 7.7 45.8 28.59 1.126
14:21 1022 30.18 851 25.13 28.4 83.1 26 7.2 45 28.51 1.122
14:22 1022 30.18 851 25.13 28.3 83 25 6.6 43.8 28.47 1.121
14:23 1022 30.18 851 25.13 28.3 83 29 9 48.3 28.47 1.121
14:24 1022 30.18 851 25.13 28.3 83 23 5.3 41.5 28.41 1.119
14:25 1022 30.18 851 25.13 28.2 82.8 23 5.4 41.7 28.23 1.111
14:26 1022 30.18 851 25.13 28 82.5 24 6 42.9 28.11 1.107
14:27 1022 30.18 851 25.13 28 82.5 26 7.3 45.2 28.18 1.109
14:28 1022 30.18 851 25.13 28.1 82.6 25 6.3 43.3 28.34 1.116
14:29 1022 30.18 851 25.13 28.3 82.9 25 6.8 44.3 28.48 1.121
14:30 1022 30.18 851 25.13 28.3 82.9 26 7.4 45.4 28.46 1.12
14:31 1022 30.18 851 25.13 28.3 82.9 26 7.1 44.7 28.46 1.12
14:32 1022 30.18 851 25.13 28.1 82.7 23 5.6 42.1 28.29 1.114
14:33 1022 30.18 851 25.13 28.1 82.5 26 7.2 45 28.19 1.11
14:34 1022 30.18 851 25.13 28 82.5 23 5.1 41.2 28.21 1.111
14:35 1022 30.18 851 25.13 28.1 82.5 26 7 44.6 28.24 1.112
14:36 1021 30.15 851 25.13 28.2 82.8 27 7.7 45.8 28.49 1.122
14:37 1021 30.15 851 25.13 28.4 83.1 26 7.2 44.9 28.61 1.126
14:38 1021 30.15 851 25.13 28.5 83.3 24 6.5 43.6 28.73 1.131
14:39 1021 30.15 851 25.13 28.6 83.4 26 7.3 45.1 28.75 1.132
14:40 1021 30.15 851 25.13 28.7 83.6 26 7.4 45.3 28.81 1.134
14:41 1021 30.15 851 25.13 28.6 83.5 25 6.9 44.3 28.71 1.13
14:42 1021 30.15 851 25.13 28.4 83.2 23 5.4 41.6 28.63 1.127
14:43 1021 30.15 851 25.13 28.3 82.9 27 7.8 46.1 28.55 1.124
14:44 1021 30.15 851 25.13 28.3 82.9 28 8.3 46.9 28.53 1.123
14:45 1021 30.15 851 25.13 28.2 82.7 22 4.8 40.7 28.45 1.12
14:46 1021 30.15 851 25.13 28.1 82.6 24 5.7 42.3 28.33 1.115
14:47 1021 30.15 851 25.13 28.1 82.5 21 4.3 39.8 28.37 1.117
14:48 1021 30.15 851 25.13 28 82.4 22 4.7 40.4 28.28 1.113
14:49 1021 30.15 851 25.13 28 82.5 23 5 41 28.28 1.113
14:50 1021 30.15 851 25.13 28 82.4 21 4.1 39.3 28.32 1.115
14:51 1021 30.15 851 25.13 27.9 82.3 25 6.6 43.9 28.31 1.115
14:52 1021 30.15 851 25.13 28 82.3 22 4.4 40 28.39 1.118
14:53 1021 30.15 851 25.13 28.1 82.5 25 6.4 43.6 28.48 1.121
14:54 1021 30.15 851 25.13 28.3 82.9 23 5.6 42.1 28.75 1.132
14:55 1021 30.15 850 25.1 28.4 83.2 21 4.6 40.2 28.89 1.137
14:56 1021 30.15 850 25.1 28.5 83.2 22 5.2 41.4 28.93 1.139
14:57 1021 30.15 850 25.1 28.6 83.4 24 6.5 43.6 29.07 1.144
14:58 1021 30.15 850 25.1 28.7 83.6 25 7 44.7 29.07 1.144
14:59 1021 30.15 850 25.1 28.8 83.8 24 6.4 43.5 29.05 1.144
15:00 1021 30.15 850 25.1 28.8 83.9 23 5.7 42.3 29.06 1.144
15:01 1021 30.15 850 25.1 28.9 84.1 22 5.3 41.5 29.17 1.148
15:02 1021 30.15 850 25.1 29 84.2 23 6.1 42.9 29.29 1.153
15:03 1021 30.15 850 25.1 29.1 84.4 22 5.8 42.5 29.24 1.151
15:04 1021 30.15 850 25.1 29.2 84.5 23 6 42.9 29.23 1.151
15:05 1021 30.15 850 25.1 29.2 84.6 21 4.9 40.8 29.18 1.149
15:06 1021 30.15 850 25.1 29.2 84.6 24 7 44.6 29.17 1.148
15:07 1021 30.15 850 25.1 29.1 84.5 21 5 41 29.25 1.152
15:08 1021 30.15 850 25.1 29 84.2 22 5.7 42.3 29.26 1.152
15:09 1021 30.15 850 25.1 28.9 84 26 7.6 45.6 29.13 1.147
15:10 1021 30.15 850 25.1 28.7 83.7 21 4.4 39.9 29.08 1.145
15:11 1021 30.15 850 25.1 28.6 83.5 22 5.4 41.6 29.03 1.143
15:12 1021 30.15 850 25.1 28.6 83.4 21 4.6 40.2 29.03 1.143
15:13 1021 30.15 850 25.1 28.5 83.4 20 4 39.2 28.96 1.14
15:14 1021 30.15 850 25.1 28.5 83.4 23 5.5 42 28.93 1.139
15:15 1021 30.15 850 25.1 28.6 83.4 22 5.1 41.2 29.06 1.144
15:16 1021 30.15 850 25.1 28.6 83.5 21 4.8 40.6 29.14 1.147
15:17 1021 30.15 850 25.1 28.7 83.7 25 7.2 45 29.25 1.152
15:18 1021 30.15 850 25.1 28.8 83.8 22 5.4 41.7 29.33 1.155
15:19 1021 30.15 850 25.1 28.7 83.7 24 6.6 43.9 29.28 1.153
15:20 1021 30.15 850 25.1 28.7 83.7 27 8.2 46.8 29.32 1.154
15:21 1021 30.15 850 25.1 28.8 83.9 22 5.4 41.7 29.39 1.157
15:22 1021 30.15 850 25.1 28.9 84 23 5.9 42.6 29.36 1.156
15:23 1021 30.15 850 25.1 28.8 83.9 24 6.3 43.4 29.36 1.156
15:24 1021 30.15 850 25.1 28.8 83.8 24 6.5 43.7 29.31 1.154
15:25 1021 30.15 850 25.1 28.7 83.7 21 4.2 39.6 29.24 1.151
15:26 1021 30.15 850 25.1 28.7 83.6 21 4.7 40.5 29.17 1.148
15:27 1021 30.15 850 25.1 28.8 83.8 20 3.7 38.7 29.26 1.152
15:28 1021 30.15 850 25.1 29 84.1 20 3.9 39.1 29.43 1.159
15:29 1021 30.15 850 25.1 29.2 84.6 22 5.7 42.3 29.6 1.165
15:30 1021 30.15 850 25.1 29.4 84.8 20 4.4 39.9 29.6 1.165
15:31 1021 30.15 850 25.1 29.5 85.1 24 6.9 44.5 29.78 1.172
15:32 1021 30.15 850 25.1 29.6 85.2 20 4.4 39.9 29.89 1.177
15:33 1021 30.15 850 25.1 29.6 85.2 20 4.3 39.7 30.02 1.182
15:34 1021 30.15 850 25.1 29.5 85.1 20 4.6 40.2 29.91 1.178
15:35 1021 30.15 850 25.1 29.4 85 21 5.3 41.5 29.97 1.18
15:36 1021 30.15 850 25.1 29.3 84.7 20 4.5 40.1 29.94 1.179
15:37 1021 30.15 850 25.1 29 84.3 23 6.1 42.9 29.72 1.17
15:38 1021 30.15 850 25.1 28.8 83.8 25 7 44.5 29.55 1.163
15:39 1021 30.15 850 25.1 28.4 83.1 26 7.5 45.5 29.17 1.148
15:40 1021 30.15 850 25.1 28 82.5 26 7.2 44.9 28.79 1.133
15:41 1021 30.15 850 25.1 27.8 82 26 6.6 43.9 28.44 1.12
15:42 1021 30.15 850 25.1 27.7 81.8 30 8.7 47.7 28.26 1.113
15:43 1021 30.15 850 25.1 27.8 82 25 6.5 43.6 28.35 1.116
15:44 1021 30.15 850 25.1 28.1 82.5 22 4.9 40.8 28.53 1.123
15:45 1021 30.15 850 25.1 28.3 83 22 4.7 40.5 28.72 1.131
15:46 1021 30.15 850 25.1 28.6 83.4 24 6.6 43.9 28.96 1.14
15:47 1021 30.15 850 25.1 28.9 84 25 6.9 44.5 29.29 1.153
15:48 1021 30.15 850 25.1 29.2 84.6 24 6.8 44.2 29.63 1.167
15:49 1021 30.15 850 25.1 29.4 85 19 4.1 39.4 29.8 1.173
15:50 1021 30.15 850 25.1 29.4 84.9 19 3.9 39 29.75 1.171
15:51 1021 30.15 850 25.1 29.4 84.9 21 5.3 41.5 29.8 1.173
15:52 1021 30.15 850 25.1 29.3 84.7 20 4 39.3 29.8 1.173
15:53 1021 30.15 850 25.1 28.9 84 19 3.7 38.6 29.47 1.16
15:54 1021 30.15 850 25.1 28.7 83.6 20 3.6 38.4 29.21 1.15
15:55 1021 30.15 850 25.1 28.6 83.5 20 4.1 39.4 29.24 1.151
15:56 1021 30.15 850 25.1 28.8 83.9 23 5.7 42.2 29.44 1.159
15:57 1021 30.15 850 25.1 28.9 84.1 20 4.2 39.6 29.61 1.166
15:58 1021 30.15 850 25.1 29 84.1 20 4.2 39.6 29.6 1.165
15:59 1021 30.15 850 25.1 29.1 84.4 23 6.2 43.2 29.73 1.17
16:00 1021 30.15 850 25.1 29.2 84.6 21 5.3 41.5 29.82 1.174
16:01 1021 30.15 850 25.1 29.2 84.5 24 6.6 43.9 29.84 1.175
16:02 1021 30.15 850 25.1 29.2 84.6 23 6.4 43.5 29.77 1.172
16:03 1021 30.15 850 25.1 29.3 84.7 22 6 42.8 29.88 1.176
16:04 1021 30.15 850 25.1 29.4 84.9 21 5.1 41.3 29.94 1.179
16:05 1021 30.15 850 25.1 29.3 84.8 19 3.7 38.6 29.85 1.175
16:06 1021 30.15 850 25.1 29.4 84.8 20 4.4 40 29.85 1.175
16:07 1021 30.15 850 25.1 29.4 85 22 5.9 42.6 29.9 1.177
16:08 1021 30.15 850 25.1 29.5 85.1 21 5.1 41.1 30.01 1.181
16:09 1021 30.15 850 25.1 29.7 85.4 22 6 42.7 30.21 1.189
16:10 1021 30.15 850 25.1 29.7 85.4 19 4.1 39.3 30.21 1.189
16:11 1021 30.15 850 25.1 29.6 85.2 19 4.1 39.3 30.16 1.187
16:12 1021 30.15 850 25.1 29.6 85.3 20 4.3 39.8 30.23 1.19
16:13 1021 30.15 850 25.1 29.5 85.2 21 5.2 41.4 30.28 1.192
16:14 1021 30.15 850 25.1 29.5 85.2 19 3.6 38.6 30.24 1.191
16:15 1021 30.15 850 25.1 29.5 85.1 20 4.6 40.3 30.34 1.194
16:16 1021 30.15 850 25.1 29.6 85.3 22 6 42.8 30.41 1.197
16:17 1021 30.15 850 25.1 29.7 85.5 18 3.5 38.3 30.45 1.199
16:18 1021 30.15 850 25.1 29.7 85.4 22 5.8 42.4 30.54 1.202
16:19 1021 30.15 850 25.1 29.9 85.7 18 3.1 37.5 30.76 1.211
16:20 1021 30.15 850 25.1 30 86.1 19 4.2 39.6 30.97 1.219
16:21 1021 30.15 850 25.1 30.3 86.5 21 5.7 42.2 31.15 1.226
16:22 1021 30.15 850 25.1 30.4 86.6 19 4.3 39.7 31.22 1.229
16:23 1021 30.15 850 25.1 30.3 86.5 20 5 41 31.08 1.224
16:24 1021 30.15 850 25.1 30 86 18 3.3 38 30.87 1.215
16:25 1021 30.15 850 25.1 29.8 85.7 20 5 40.9 30.65 1.207
16:26 1021 30.15 850 25.1 29.7 85.5 23 6.8 44.3 30.51 1.201
16:27 1021 30.15 850 25.1 29.6 85.4 24 7.1 44.8 30.39 1.196
16:28 1021 30.15 850 25.1 29.6 85.3 20 4.8 40.6 30.29 1.193
16:29 1021 30.15 850 25.1 29.5 85 24 6.9 44.4 30.11 1.185
16:30 1021 30.15 850 25.1 29.4 85 24 6.9 44.4 30.04 1.183
16:31 1021 30.15 850 25.1 29.5 85 18 3.4 38.1 29.97 1.18
16:32 1020 30.12 850 25.1 29.5 85.1 19 4.1 39.4 30.01 1.181
16:33 1020 30.12 850 25.1 29.7 85.4 20 4.9 40.9 30.12 1.186
16:34 1020 30.12 850 25.1 29.6 85.2 20 4.5 40.1 30.03 1.182
16:35 1020 30.12 850 25.1 29.5 85 19 3.6 38.5 29.94 1.179
16:36 1020 30.12 850 25.1 29.5 85.2 21 5.6 42 29.98 1.18
16:37 1020 30.12 850 25.1 29.6 85.3 18 3.4 38.1 30.16 1.187
16:38 1020 30.12 850 25.1 29.6 85.3 20 4.3 39.7 30.15 1.187
16:39 1020 30.12 850 25.1 29.5 85.2 20 4.9 40.8 30.14 1.187
16:40 1020 30.12 850 25.1 29.5 85.1 21 5.3 41.5 30.03 1.182
16:41 1020 30.12 850 25.1 29.5 85 23 6.6 44 30.04 1.183
16:42 1020 30.12 850 25.1 29.4 84.8 27 8.7 47.6 30.01 1.181
16:43 1020 30.12 850 25.1 29.3 84.7 20 4.7 40.4 29.87 1.176
16:44 1020 30.12 850 25.1 29.2 84.5 27 8.6 47.5 29.71 1.17
16:45 1020 30.12 850 25.1 29.1 84.5 19 3.2 37.7 29.63 1.167
16:46 1020 30.12 850 25.1 29.2 84.5 22 5.5 42 29.63 1.167
16:47 1020 30.12 850 25.1 29.2 84.6 21 4.9 40.9 29.71 1.17
16:48 1020 30.12 850 25.1 29.4 84.8 21 5 40.9 29.8 1.173
16:49 1020 30.12 850 25.1 29.4 85 19 4 39.2 29.87 1.176
16:50 1020 30.12 850 25.1 29.5 85 20 4.4 40 29.87 1.176
16:51 1020 30.12 850 25.1 29.5 85 19 3.6 38.4 29.87 1.176
16:52 1020 30.12 850 25.1 29.4 85 21 5.5 41.9 29.89 1.177
16:53 1020 30.12 850 25.1 29.5 85 20 4.8 40.6 29.9 1.177
16:54 1020 30.12 850 25.1 29.4 85 20 4.3 39.7 29.87 1.176
16:55 1020 30.12 850 25.1 29.5 85 23 6.8 44.2 29.95 1.179
16:56 1020 30.12 850 25.1 29.2 84.6 24 6.8 44.2 29.75 1.171
16:57 1020 30.12 850 25.1 29 84.1 22 5.7 42.3 29.5 1.161
16:58 1020 30.12 850 25.1 28.6 83.5 26 7.6 45.7 29.12 1.146
16:59 1020 30.12 850 25.1 28.3 83 23 5.7 42.2 28.84 1.135
17:00 1020 30.12 850 25.1 28.1 82.7 28 8.1 46.5 28.56 1.124
17:01 1020 30.12 850 25.1 28 82.5 31 9.4 48.9 28.51 1.122
17:02 1020 30.12 850 25.1 28.1 82.6 26 7.2 45 28.49 1.122
17:03 1020 30.12 850 25.1 28.2 82.8 25 6.8 44.3 28.69 1.13
17:04 1020 30.12 850 25.1 28.3 83 23 5.7 42.3 28.75 1.132
17:05 1020 30.12 850 25.1 28.4 83.2 21 4.6 40.2 28.87 1.137
17:06 1020 30.12 850 25.1 28.5 83.3 24 6.2 43.1 28.9 1.138
17:07 1020 30.12 850 25.1 28.6 83.5 23 6 42.7 29.06 1.144
17:08 1020 30.12 850 25.1 28.8 83.8 20 4 39.3 29.19 1.149
17:09 1020 30.12 850 25.1 29 84.2 19 3.6 38.4 29.36 1.156
17:10 1020 30.12 850 25.1 29.1 84.5 20 4.2 39.5 29.5 1.161
17:11 1020 30.12 850 25.1 29.2 84.5 20 4.2 39.5 29.6 1.165
17:12 1020 30.12 850 25.1 29.2 84.6 22 5.6 42 29.72 1.17
17:13 1020 30.12 850 25.1 29.3 84.7 23 6.3 43.4 29.85 1.175
17:14 1020 30.12 850 25.1 29.5 85 21 5.4 41.8 29.96 1.18
17:15 1020 30.12 850 25.1 29.6 85.3 21 5.3 41.5 30.09 1.185
17:16 1020 30.12 850 25.1 29.6 85.3 20 4.5 40.1 30.17 1.188
17:17 1020 30.12 850 25.1 29.8 85.6 22 6 42.7 30.31 1.193
17:18 1020 30.12 850 25.1 29.9 85.9 19 4.2 39.6 30.44 1.198
17:19 1020 30.12 850 25.1 29.9 85.8 20 5 41 30.52 1.202
17:20 1020 30.12 850 25.1 29.9 85.9 19 3.8 38.8 30.53 1.202
17:21 1020 30.12 850 25.1 30 86 19 3.9 39.1 30.53 1.202
17:22 1020 30.12 850 25.1 30 86 21 5.8 42.4 30.49 1.2
17:23 1020 30.12 850 25.1 30 86.1 19 4.4 39.9 30.48 1.2
17:24 1020 30.12 850 25.1 29.9 85.8 21 5.4 41.7 30.42 1.198
17:25 1020 30.12 850 25.1 29.7 85.5 19 3.9 39.1 30.24 1.191
17:26 1020 30.12 850 25.1 29.4 85 21 5.3 41.6 29.94 1.179
17:27 1020 30.12 850 25.1 29.2 84.5 18 3.1 37.5 29.59 1.165
17:28 1020 30.12 850 25.1 28.9 83.9 19 3.5 38.4 29.28 1.153
17:29 1020 30.12 850 25.1 28.6 83.5 19 3.2 37.7 29.01 1.142
17:30 1020 30.12 850 25.1 28.4 83.2 20 3.3 37.9 28.82 1.135
17:31 1020 30.12 850 25.1 28.2 82.8 21 4.1 39.4 28.67 1.129
17:32 1020 30.12 850 25.1 28.1 82.5 20 3.5 38.2 28.49 1.122
17:33 1020 30.12 850 25.1 27.9 82.3 20 3 37.4 28.33 1.115
17:34 1021 30.15 850 25.1 27.8 82.1 20 3.1 37.6 28.17 1.109
17:35 1020 30.12 850 25.1 27.7 81.9 20 3 37.4 28.07 1.105
17:36 1020 30.12 850 25.1 27.6 81.7 20 3.1 37.6 28.03 1.104
17:37 1020 30.12 850 25.1 27.6 81.6 20 3 37.4 27.97 1.101
17:38 1020 30.12 850 25.1 27.5 81.5 20 3.1 37.6 27.88 1.098
17:39 1020 30.12 850 25.1 27.5 81.5 21 3.2 37.8 27.86 1.097
17:40 1020 30.12 850 25.1 27.4 81.4 21 3.7 38.6 27.8 1.094
17:41 1020 30.12 850 25.1 27.3 81.1 22 3.8 38.8 27.74 1.092
17:42 1020 30.12 850 25.1 27.2 81 21 3.1 37.6 27.62 1.087
17:43 1020 30.12 850 25.1 27.1 80.8 21 3.2 37.8 27.53 1.084
17:44 1020 30.12 850 25.1 27.1 80.8 21 3.2 37.8 27.45 1.081
17:45 1020 30.12 850 25.1 27.1 80.7 21 3.1 37.6 27.42 1.08
17:46 1020 30.12 850 25.1 27.1 80.7 21 3.1 37.5 27.39 1.078
17:47 1020 30.12 850 25.1 27 80.6 21 3.4 38.2 27.42 1.08
17:48 1020 30.12 850 25.1 27 80.6 22 3.5 38.3 27.41 1.079
17:49 1020 30.12 850 25.1 27 80.6 22 3.6 38.5 27.36 1.077
17:50 1020 30.12 850 25.1 26.9 80.4 31 8.4 47.2 27.35 1.077
17:51 1020 30.12 850 25.1 26.5 79.8 27 6 42.9 27.13 1.068
17:52 1020 30.12 850 25.1 26.3 79.3 26 5.4 41.8 26.8 1.055
17:53 1020 30.12 850 25.1 26.2 79.1 28 6.7 44 26.62 1.048
17:54 1020 30.12 850 25.1 26 78.9 26 5.3 41.6 26.47 1.042
17:55 1020 30.12 850 25.1 26 78.9 25 4.6 40.3 26.41 1.04
17:56 1020 30.12 850 25.1 26.2 79.2 24 4.1 39.4 26.49 1.043
17:57 1021 30.15 850 25.1 26.4 79.4 24 4.7 40.4 26.63 1.048
17:58 1020 30.12 850 25.1 26.3 79.4 28 6.8 44.3 26.68 1.05
17:59 1020 30.12 850 25.1 26.1 78.9 29 6.9 44.4 26.5 1.043
18:00 1020 30.12 850 25.1 25.9 78.7 35 9.5 49.1 26.3 1.035
18:01 1020 30.12 850 25.1 25.8 78.4 33 8.5 47.3 26.26 1.034
18:02 1020 30.12 850 25.1 25.5 77.9 40 11.3 52.3 26 1.024
18:03 1021 30.15 850 25.1 25.2 77.3 41 11.4 52.4 25.72 1.013
18:04 1021 30.15 850 25.1 24.9 76.8 43 11.7 53.1 25.43 1.001
18:05 1020 30.12 850 25.1 24.8 76.7 27 5 41 25.17 0.991
18:06 1021 30.15 850 25.1 24.9 76.9 27 4.7 40.4 25.16 0.991
18:07 1021 30.15 850 25.1 25.1 77.1 30 6.7 44.1 25.27 0.995
18:08 1020 30.12 850 25.1 25.2 77.3 30 6.5 43.6 25.42 1.001
18:09 1020 30.12 850 25.1 25.2 77.3 27 4.9 40.8 25.42 1.001
18:10 1020 30.12 850 25.1 25.3 77.6 25 4.3 39.8 25.51 1.004
18:11 1020 30.12 850 25.1 25.4 77.8 27 5.4 41.7 25.66 1.01
18:12 1020 30.12 850 25.1 25.5 77.8 28 5.9 42.6 25.77 1.015
18:13 1020 30.12 850 25.1 25.4 77.7 30 6.8 44.2 25.75 1.014
18:14 1020 30.12 850 25.1 25.3 77.6 32 7.5 45.6 25.7 1.012
18:15 1020 30.12 850 25.1 25.2 77.4 33 8 46.4 25.6 1.008
18:16 1020 30.12 850 25.1 25.1 77.1 39 10.3 50.5 25.5 1.004
18:17 1021 30.15 850 25.1 24.8 76.6 39 10.2 50.4 25.3 0.996
18:18 1020 30.12 850 25.1 24.5 76.1 42 10.9 51.6 24.99 0.984
18:19 1021 30.15 850 25.1 24.3 75.8 46 12.2 54 24.76 0.975
18:20 1020 30.12 850 25.1 24.2 75.5 44 11.2 52.2 24.69 0.972
18:21 1020 30.12 850 25.1 24.1 75.4 48 12.6 54.7 24.62 0.969
18:22 1020 30.12 850 25.1 23.9 75.1 48 12.5 54.5 24.68 0.972
18:23 1020 30.12 850 25.1 23.8 74.8 45 11.2 52.1 24.73 0.974
18:24 1020 30.12 850 25.1 23.7 74.7 51 13.1 55.6 24.72 0.973
18:25 1020 30.12 850 25.1 23.7 74.7 53 13.7 56.7 24.7 0.972
18:26 1020 30.12 850 25.1 23.8 74.8 57 14.8 58.7 24.77 0.975
18:27 1020 30.12 850 25.1 23.8 74.8 53 13.8 56.9 24.74 0.974
18:28 1021 30.15 850 25.1 23.7 74.7 51 13.2 55.8 24.57 0.967
18:29 1020 30.12 850 25.1 23.8 74.8 44 10.9 51.7 24.4 0.961
18:30 1021 30.15 850 25.1 23.8 74.9 49 12.7 54.8 24.38 0.96
18:31 1021 30.15 850 25.1 23.9 75 48 12.3 54.2 24.44 0.962
18:32 1021 30.15 850 25.1 24 75.1 46 11.9 53.5 24.45 0.963
18:33 1021 30.15 850 25.1 24.1 75.4 47 12.2 53.9 24.55 0.967
18:34 1021 30.15 850 25.1 24.2 75.6 49 13.1 55.6 24.67 0.971
18:35 1021 30.15 850 25.1 24.4 75.8 51 13.8 56.9 24.81 0.977
18:36 1021 30.15 850 25.1 24.4 76 49 13.2 55.8 24.88 0.98
18:37 1021 30.15 850 25.1 24.4 76 53 14.4 57.9 24.95 0.982
18:38 1021 30.15 850 25.1 24.4 75.9 54 14.6 58.3 24.92 0.981
18:39 1021 30.15 850 25.1 24.3 75.8 52 14.1 57.4 24.85 0.978
18:40 1021 30.15 850 25.1 24.3 75.7 52 14 57.2 24.74 0.974
18:41 1021 30.15 850 25.1 24.2 75.6 54 14.4 58 24.68 0.972
18:42 1021 30.15 850 25.1 24.1 75.3 56 14.8 58.6 24.55 0.967
18:43 1021 30.15 850 25.1 23.9 75 55 14.4 57.9 24.4 0.961
18:44 1021 30.15 850 25.1 23.7 74.7 55 14.4 57.9 24.19 0.952
18:45 1021 30.15 850 25.1 23.5 74.2 55 14.1 57.4 23.96 0.943
18:46 1021 30.15 850 25.1 23.3 73.9 56 14.1 57.4 23.73 0.934
18:47 1021 30.15 850 25.1 23.1 73.5 54 13.4 56.1 23.52 0.926
18:48 1021 30.15 850 25.1 23 73.4 49 11.9 53.5 23.32 0.918
18:49 1021 30.15 850 25.1 23 73.4 45 10.5 51 23.28 0.917
18:50 1021 30.15 850 25.1 23.1 73.5 33 6.2 43.1 23.24 0.915
18:51 1021 30.15 850 25.1 23.3 73.9 36 7.4 45.2 23.46 0.924
18:52 1021 30.15 850 25.1 23.3 73.9 35 7.2 45 23.53 0.926
18:53 1021 30.15 850 25.1 23.3 73.9 35 7.1 44.9 23.53 0.926
18:54 1020 30.12 850 25.1 23.1 73.5 32 5.9 42.6 23.41 0.922
18:55 1021 30.15 850 25.1 23.1 73.7 30 5 40.9 23.47 0.924
18:56 1021 30.15 850 25.1 23.4 74.1 33 6.2 43.2 23.67 0.932
18:57 1021 30.15 850 25.1 23.1 73.5 35 6.8 44.2 23.4 0.921
18:58 1021 30.15 850 25.1 22.9 73.2 33 6.2 43.1 23.28 0.917
18:59 1021 30.15 850 25.1 22.9 73.3 36 7.1 44.9 23.33 0.919
19:00 1021 30.15 850 25.1 23 73.5 28 3.8 38.8 23.34 0.919
19:01 1021 30.15 850 25.1 23.7 74.7 26 3.5 38.3 23.98 0.944
19:02 1021 30.15 850 25.1 24.3 75.7 26 3.8 38.9 24.61 0.969
19:03 1021 30.15 850 25.1 24.9 76.7 27 4.9 40.8 25.19 0.992
19:04 1021 30.15 850 25.1 25 77 29 5.9 42.7 25.32 0.997
19:05 1021 30.15 850 25.1 24.8 76.7 31 6.9 44.4 25.14 0.99
19:06 1021 30.15 850 25.1 24.5 76.1 33 7.5 45.5 24.71 0.973
19:07 1021 30.15 850 25.1 24 75.2 28 4.4 40 24.19 0.952
19:08 1021 30.15 850 25.1 24 75.1 31 5.8 42.5 24.3 0.957
19:09 1021 30.15 850 25.1 24 75.2 29 4.9 40.9 24.37 0.959
19:10 1021 30.15 850 25.1 24.2 75.6 25 3.2 37.7 24.59 0.968
19:11 1021 30.15 850 25.1 24.6 76.3 26 4.1 39.5 25.02 0.985
19:12 1021 30.15 850 25.1 24.8 76.6 29 6 42.8 25.18 0.991
19:13 1021 30.15 850 25.1 24.7 76.4 28 5.1 41.1 25 0.984
19:14 1021 30.15 850 25.1 24.5 76.2 30 6 42.9 24.9 0.98
19:15 1021 30.15 850 25.1 24.5 76 30 6 42.8 24.78 0.976
19:16 1021 30.15 850 25.1 24.3 75.7 32 6.7 44.1 24.62 0.969
19:17 1021 30.15 850 25.1 24 75.2 33 6.9 44.4 24.34 0.958
19:18 1021 30.15 850 25.1 23.8 74.8 32 6.3 43.4 24.07 0.948
19:19 1021 30.15 850 25.1 23.6 74.5 33 6.7 44.1 23.91 0.941
19:20 1021 30.15 850 25.1 23.4 74.2 33 6.7 44 23.75 0.935
19:21 1021 30.15 850 25.1 23.3 73.9 34 6.5 43.8 23.59 0.929
19:22 1021 30.15 850 25.1 23.2 73.7 37 7.7 45.9 23.47 0.924
19:23 1021 30.15 850 25.1 23.1 73.6 24 1.9 35.4 23.46 0.924
19:24 1021 30.15 850 25.1 23.8 74.8 27 4.1 39.4 24.03 0.946
19:25 1021 30.15 850 25.1 24.1 75.4 34 7.5 45.5 24.42 0.961
19:26 1021 30.15 850 25.1 23.8 74.9 24 2.5 36.5 24.25 0.955
19:27 1021 30.15 850 25.1 24.3 75.7 24 2.6 36.7 24.57 0.967
19:28 1021 30.15 850 25.1 24.8 76.6 27 4.5 40.1 25.04 0.986
19:29 1021 30.15 850 25.1 24.8 76.6 29 5.9 42.7 25.13 0.989
19:30 1021 30.15 850 25.1 24.4 75.8 34 7.5 45.5 24.77 0.975
19:31 1021 30.15 850 25.1 23.5 74.4 39 8.9 48 24.03 0.946
19:32 1021 30.15 850 25.1 23 73.4 35 6.8 44.3 23.41 0.922
19:33 1021 30.15 850 25.1 22.9 73.1 38 7.8 46.1 23.23 0.915
19:34 1021 30.15 850 25.1 22.2 72 36 6.8 44.2 22.56 0.888
19:35 1021 30.15 850 25.1 22.2 72 33 5.5 41.9 22.47 0.885
19:36 1021 30.15 850 25.1 22.6 72.7 31 4.8 40.6 22.79 0.897
19:37 1021 30.15 851 25.13 23 73.5 31 5.4 41.7 23.29 0.917
19:38 1021 30.15 850 25.1 23.5 74.2 27 3.7 38.6 23.87 0.94
19:39 1021 30.15 850 25.1 23.7 74.7 30 5.5 42 24.13 0.95
19:40 1021 30.15 850 25.1 23.5 74.3 32 5.9 42.6 23.84 0.939
19:41 1021 30.15 850 25.1 23.3 73.9 34 6.9 44.4 23.58 0.928
19:42 1021 30.15 850 25.1 23 73.5 26 2.9 37.3 23.39 0.921
19:43 1021 30.15 850 25.1 23.4 74.1 26 2.9 37.2 23.86 0.939
19:44 1021 30.15 850 25.1 23.8 74.9 28 4.6 40.4 24.27 0.956
19:45 1021 30.15 850 25.1 24.2 75.5 28 4.5 40.2 24.63 0.97
19:46 1021 30.15 850 25.1 24.6 76.2 30 6 42.8 24.89 0.98
19:47 1021 30.15 850 25.1 24.6 76.3 27 4.8 40.6 24.88 0.98
19:48 1021 30.15 850 25.1 24.4 76 30 6.2 43.2 24.6 0.969
19:49 1021 30.15 850 25.1 24 75.2 33 7 44.7 24.09 0.948
19:50 1021 30.15 850 25.1 23.4 74.2 37 8.1 46.6 23.56 0.928
19:51 1021 30.15 850 25.1 23 73.4 33 6.1 43 23.1 0.909
19:52 1021 30.15 850 25.1 22.8 73.1 35 7 44.5 23.11 0.91
19:53 1021 30.15 850 25.1 22.7 72.9 35 6.8 44.2 22.98 0.905
19:54 1021 30.15 850 25.1 22.5 72.5 36 6.8 44.2 22.71 0.894
19:55 1021 30.15 850 25.1 22.3 72.1 35 6.3 43.4 22.57 0.889
19:56 1021 30.15 850 25.1 22.2 72 38 7.3 45.2 22.48 0.885
19:57 1021 30.15 850 25.1 22 71.6 39 7.5 45.5 22.29 0.878
19:58 1021 30.15 850 25.1 21.9 71.5 39 7.4 45.4 22.25 0.876
19:59 1021 30.15 850 25.1 21.9 71.4 38 7.2 44.9 22.17 0.873
20:00 1021 30.15 850 25.1 21.9 71.3 37 6.7 44 22.2 0.874
20:01 1021 30.15 850 25.1 21.9 71.4 36 6.4 43.6 22.24 0.876
20:02 1021 30.15 850 25.1 22 71.5 38 7.2 45 22.29 0.878
20:03 1021 30.15 850 25.1 22 71.5 37 6.8 44.2 22.28 0.877
20:04 1021 30.15 850 25.1 22.1 71.7 32 4.7 40.5 22.45 0.884
20:05 1021 30.15 850 25.1 22.5 72.5 37 7.2 45 23.02 0.906
20:06 1021 30.15 850 25.1 22.4 72.2 40 8.4 47.1 22.75 0.896
20:07 1021 30.15 850 25.1 21.6 70.9 45 9.4 48.9 22.06 0.869
20:08 1021 30.15 850 25.1 20.8 69.4 48 9.4 49 21.25 0.837
20:09 1021 30.15 850 25.1 20.1 68.2 51 10 49.9 20.63 0.812
20:10 1021 30.15 850 25.1 19.6 67.2 55 10.4 50.7 20.06 0.79
20:11 1021 30.15 850 25.1 19 66.2 57 10.3 50.5 19.5 0.768
20:12 1021 30.15 850 25.1 18.6 65.4 57 10 49.9 19.02 0.749
20:13 1021 30.15 850 25.1 18.4 65.2 55 9.5 49.1 18.82 0.741
20:14 1021 30.15 850 25.1 18.3 65 57 9.7 49.5 18.72 0.737
20:15 1021 30.15 850 25.1 18.2 64.7 57 9.7 49.4 18.55 0.73
20:16 1021 30.15 850 25.1 18 64.3 58 9.6 49.3 18.37 0.723
20:17 1021 30.15 850 25.1 17.8 64.1 58 9.5 49.2 18.23 0.718
20:18 1021 30.15 850 25.1 17.7 63.9 58 9.5 49.1 18.13 0.714
20:19 1021 30.15 850 25.1 17.8 64.1 58 9.5 49.2 18.19 0.716
20:20 1021 30.15 850 25.1 17.8 64.1 56 9.1 48.4 18.16 0.715
20:21 1021 30.15 850 25.1 17.8 64.1 58 9.5 49.1 18.16 0.715
20:22 1021 30.15 850 25.1 17.7 63.9 58 9.5 49 18.07 0.711
20:23 1021 30.15 850 25.1 17.6 63.7 58 9.3 48.8 17.98 0.708
20:24 1021 30.15 850 25.1 17.6 63.7 58 9.2 48.6 17.97 0.707
20:25 1021 30.15 850 25.1 17.7 63.8 57 9.3 48.7 18 0.709
20:26 1021 30.15 850 25.1 17.6 63.6 58 9.3 48.7 17.97 0.707
20:27 1021 30.15 850 25.1 17.5 63.5 59 9.4 49 17.85 0.703
20:28 1021 30.15 850 25.1 17.3 63.2 59 9.3 48.7 17.72 0.698
20:29 1021 30.15 850 25.1 17.3 63.1 59 9.3 48.8 17.64 0.694
20:30 1021 30.15 850 25.1 17.1 62.8 60 9.4 49 17.49 0.689
20:31 1021 30.15 850 25.1 16.9 62.5 60 9.3 48.8 17.33 0.682
20:32 1021 30.15 850 25.1 16.8 62.3 61 9.4 48.8 17.18 0.676
20:33 1021 30.15 850 25.1 16.7 62.1 60 9.1 48.3 17.08 0.672
20:34 1021 30.15 850 25.1 16.7 62.1 60 9.1 48.3 17.05 0.671
20:35 1021 30.15 850 25.1 16.7 62.1 60 9 48.2 17.04 0.671
20:36 1021 30.15 850 25.1 16.8 62.2 59 8.9 48 17.12 0.674
20:37 1021 30.15 850 25.1 16.8 62.3 59 8.9 48.1 17.12 0.674
20:38 1021 30.15 850 25.1 16.7 62.1 59 8.8 47.8 17.08 0.672
20:39 1021 30.15 850 25.1 16.8 62.2 58 8.6 47.6 17.06 0.672
20:40 1021 30.15 850 25.1 16.9 62.4 58 8.6 47.5 17.18 0.676
20:41 1021 30.15 850 25.1 17.2 62.9 55 8.3 46.9 17.37 0.684
20:42 1021 30.15 850 25.1 17.6 63.7 54 8.3 46.9 17.79 0.7
20:43 1021 30.15 850 25.1 18 64.3 54 8.7 47.7 18.12 0.713
20:44 1021 30.15 850 25.1 18 64.4 54 8.6 47.4 18.27 0.719
20:45 1021 30.15 850 25.1 18 64.4 55 8.8 47.9 18.28 0.72
20:46 1021 30.15 850 25.1 17.9 64.2 54 8.6 47.6 18.17 0.715
20:47 1021 30.15 850 25.1 17.8 64 54 8.6 47.5 18.06 0.711
20:48 1021 30.15 850 25.1 17.7 63.9 54 8.5 47.3 18.03 0.71
20:49 1021 30.15 850 25.1 17.7 63.9 55 8.7 47.6 18.04 0.71
20:50 1021 30.15 850 25.1 17.7 63.8 55 8.5 47.4 17.99 0.708
20:51 1021 30.15 850 25.1 17.6 63.6 55 8.6 47.4 17.93 0.706
20:52 1021 30.15 850 25.1 17.5 63.4 55 8.5 47.3 17.82 0.702
20:53 1021 30.15 850 25.1 17.4 63.2 56 8.7 47.6 17.72 0.698
20:54 1021 30.15 850 25.1 17.5 63.4 54 8.2 46.7 17.73 0.698
20:55 1021 30.15 851 25.13 17.8 64.1 53 8.2 46.7 18.04 0.71
20:56 1021 30.15 851 25.13 18.2 64.7 49 7.4 45.2 18.35 0.722
20:57 1021 30.15 851 25.13 18.5 65.3 50 8 46.4 18.65 0.734
20:58 1021 30.15 851 25.13 18.6 65.5 50 8.1 46.6 18.84 0.742
20:59 1021 30.15 851 25.13 18.7 65.7 49 8 46.4 18.96 0.746
21:00 1021 30.15 851 25.13 18.7 65.7 50 8.1 46.6 18.99 0.748
21:01 1021 30.15 851 25.13 18.8 65.8 50 8.2 46.8 19.05 0.75
21:02 1021 30.15 851 25.13 18.7 65.7 51 8.5 47.2 19.02 0.749
21:03 1021 30.15 851 25.13 18.6 65.5 52 8.6 47.6 18.93 0.745
21:04 1021 30.15 851 25.13 18.5 65.3 52 8.5 47.3 18.81 0.741
21:05 1021 30.15 851 25.13 18.5 65.2 50 7.9 46.1 18.79 0.74
21:06 1021 30.15 851 25.13 18.5 65.4 51 8.4 47.1 18.85 0.742
21:07 1021 30.15 851 25.13 18.4 65.2 52 8.6 47.5 18.8 0.74
21:08 1021 30.15 851 25.13 18.3 64.9 52 8.4 47.2 18.64 0.734
21:09 1021 30.15 851 25.13 18.2 64.7 54 8.8 47.8 18.5 0.728
21:10 1021 30.15 851 25.13 18 64.4 54 8.7 47.6 18.34 0.722
21:11 1021 30.15 851 25.13 17.8 64.1 54 8.5 47.2 18.21 0.717
21:12 1021 30.15 851 25.13 17.9 64.1 54 8.4 47.1 18.21 0.717
21:13 1021 30.15 851 25.13 17.9 64.1 52 8.1 46.6 18.22 0.717
21:14 1021 30.15 851 25.13 17.8 64.1 54 8.4 47.1 18.18 0.716
21:15 1021 30.15 851 25.13 17.6 63.7 55 8.5 47.3 18.02 0.709
21:16 1021 30.15 851 25.13 17.5 63.4 56 8.7 47.6 17.81 0.701
21:17 1021 30.15 851 25.13 17.3 63.1 57 8.8 47.9 17.62 0.694
21:18 1021 30.15 851 25.13 17 62.7 58 8.7 47.7 17.4 0.685
21:19 1021 30.15 851 25.13 16.9 62.3 59 8.9 48 17.22 0.678
21:20 1021 30.15 851 25.13 16.7 62 60 8.8 47.9 17.08 0.672
21:21 1021 30.15 851 25.13 16.5 61.7 60 8.7 47.7 16.85 0.663
21:22 1021 30.15 851 25.13 16.4 61.5 60 8.7 47.7 16.75 0.659
21:23 1022 30.18 851 25.13 16.2 61.2 60 8.6 47.5 16.58 0.653
21:24 1022 30.18 851 25.13 16 60.9 61 8.5 47.4 16.42 0.646
21:25 1022 30.18 851 25.13 15.9 60.6 61 8.6 47.4 16.29 0.641
21:26 1022 30.18 851 25.13 15.8 60.5 61 8.5 47.3 16.21 0.638
21:27 1022 30.18 851 25.13 15.8 60.4 62 8.5 47.4 16.17 0.637
21:28 1022 30.18 851 25.13 15.8 60.4 62 8.6 47.5 16.16 0.636
21:29 1022 30.18 851 25.13 15.7 60.3 62 8.5 47.4 16.11 0.634
21:30 1022 30.18 851 25.13 15.7 60.3 62 8.5 47.4 16.09 0.633
21:31 1022 30.18 851 25.13 15.7 60.3 62 8.5 47.3 16.11 0.634
21:32 1022 30.18 851 25.13 15.7 60.2 62 8.5 47.4 16.06 0.632
21:33 1022 30.18 851 25.13 15.8 60.4 62 8.6 47.4 16.09 0.633
21:34 1022 30.18 851 25.13 15.8 60.4 62 8.6 47.6 16.1 0.634
21:35 1022 30.18 851 25.13 15.7 60.3 62 8.4 47.2 16.13 0.635
21:36 1022 30.18 851 25.13 15.9 60.6 61 8.5 47.3 16.22 0.639
21:37 1022 30.18 851 25.13 15.9 60.7 61 8.5 47.3 16.28 0.641
21:38 1022 30.18 851 25.13 16 60.8 62 8.7 47.7 16.34 0.643
21:39 1022 30.18 851 25.13 16 60.8 61 8.4 47.2 16.36 0.644
21:40 1022 30.18 851 25.13 16.1 61 60 8.5 47.3 16.45 0.648
21:41 1022 30.18 851 25.13 16.3 61.3 60 8.5 47.4 16.61 0.654
21:42 1022 30.18 851 25.13 16.4 61.5 60 8.6 47.5 16.71 0.658
21:43 1022 30.18 851 25.13 16.4 61.6 61 8.9 48 16.77 0.66
21:44 1022 30.18 851 25.13 16.3 61.3 62 9 48.2 16.67 0.656
21:45 1022 30.18 851 25.13 16.1 61 63 9.3 48.7 16.56 0.652
21:46 1022 30.18 851 25.13 15.8 60.5 70 10.4 50.7 16.21 0.638
21:47 1022 30.18 851 25.13 15.3 59.6 69 9.6 49.4 15.65 0.616
21:48 1022 30.18 852 25.16 15.2 59.3 67 9.2 48.6 15.62 0.615
21:49 1022 30.18 852 25.16 15.4 59.8 65 8.9 47.9 15.83 0.623
21:50 1022 30.18 852 25.16 15.7 60.3 61 8.4 47.1 16.15 0.636
21:51 1022 30.18 852 25.16 16.1 61 62 8.8 47.9 16.57 0.652
21:52 1022 30.18 852 25.16 16.4 61.6 57 8 46.4 16.82 0.662
21:53 1022 30.18 852 25.16 16.8 62.3 57 8.4 47.2 17.2 0.677
21:54 1022 30.18 852 25.16 17 62.7 58 8.7 47.7 17.4 0.685
21:55 1022 30.18 852 25.16 17.1 62.8 57 8.7 47.6 17.44 0.687
21:56 1022 30.18 852 25.16 17.2 62.9 57 8.7 47.6 17.5 0.689
21:57 1022 30.18 852 25.16 17.2 63 57 8.7 47.6 17.61 0.693
21:58 1022 30.18 852 25.16 17.2 63 58 8.9 48 17.64 0.694
21:59 1022 30.18 852 25.16 17.2 63 58 9.1 48.3 17.57 0.692
22:00 1022 30.18 852 25.16 17.1 62.8 58 8.9 48.1 17.49 0.689
22:01 1022 30.18 852 25.16 17.1 62.8 58 8.8 47.8 17.45 0.687
22:02 1022 30.18 852 25.16 17.1 62.8 57 8.6 47.4 17.49 0.689
22:03 1022 30.18 852 25.16 17.2 62.9 56 8.5 47.3 17.52 0.69
22:04 1022 30.18 852 25.16 17.2 63 56 8.6 47.4 17.56 0.691
22:05 1022 30.18 852 25.16 17.4 63.2 55 8.2 46.8 17.61 0.693
22:06 1022 30.18 852 25.16 17.5 63.5 54 8.3 47 17.73 0.698
22:07 1022 30.18 852 25.16 17.6 63.7 52 7.9 46.2 17.89 0.704
22:08 1022 30.18 852 25.16 17.9 64.2 52 8 46.4 18.12 0.713
22:09 1022 30.18 852 25.16 18.1 64.5 51 7.8 46.1 18.3 0.72
22:10 1022 30.18 852 25.16 18.2 64.7 55 9.2 48.5 18.39 0.724
22:11 1022 30.18 852 25.16 17.8 64 59 9.8 49.7 18.14 0.714
22:12 1022 30.18 852 25.16 17.2 63 59 9.2 48.6 17.7 0.697
22:13 1023 30.21 852 25.16 16.9 62.5 61 9.5 49.1 17.38 0.684
22:14 1023 30.21 852 25.16 16.8 62.2 63 9.6 49.4 17.18 0.676
22:15 1023 30.21 852 25.16 16.5 61.8 63 9.6 49.3 16.96 0.668
22:16 1023 30.21 852 25.16 16.4 61.5 63 9.5 49 16.81 0.662
22:17 1023 30.21 852 25.16 16.3 61.4 63 9.4 49 16.73 0.659
22:18 1023 30.21 852 25.16 16.3 61.3 64 9.6 49.3 16.67 0.656
22:19 1023 30.21 852 25.16 16.2 61.1 64 9.5 49.2 16.56 0.652
22:20 1023 30.21 852 25.16 16.2 61.1 64 9.4 48.9 16.51 0.65
22:21 1023 30.21 852 25.16 16.2 61.1 63 9.3 48.7 16.57 0.652
22:22 1023 30.21 852 25.16 16.2 61.2 62 9 48.3 16.57 0.652
22:23 1023 30.21 852 25.16 16.4 61.6 60 8.6 47.5 16.73 0.659
22:24 1023 30.21 852 25.16 16.7 62 60 9 48.3 16.96 0.668
22:25 1023 30.21 852 25.16 16.7 62.1 60 9 48.2 17.07 0.672
22:26 1023 30.21 852 25.16 16.8 62.2 60 9.1 48.5 17.09 0.673
22:27 1023 30.21 852 25.16 16.8 62.2 61 9.4 48.9 17.13 0.674
22:28 1023 30.21 852 25.16 16.8 62.2 59 8.9 48 17.14 0.675
22:29 1023 30.21 852 25.16 16.9 62.5 60 9.2 48.6 17.29 0.681
22:30 1023 30.21 852 25.16 17 62.5 62 9.6 49.3 17.29 0.681
22:31 1023 30.21 852 25.16 16.8 62.3 62 9.7 49.4 17.25 0.679
22:32 1023 30.21 852 25.16 16.7 62.1 62 9.5 49.2 17.11 0.674
22:33 1023 30.21 852 25.16 16.6 61.9 62 9.4 48.8 17.05 0.671
22:34 1023 30.21 852 25.16 16.7 62.1 60 9 48.2 17.09 0.673
22:35 1023 30.21 852 25.16 16.9 62.3 59 9 48.2 17.19 0.677
22:36 1023 30.21 852 25.16 17 62.6 58 8.7 47.6 17.33 0.682
22:37 1023 30.21 852 25.16 17.2 63 57 8.6 47.5 17.49 0.689
22:38 1023 30.21 852 25.16 17.3 63.2 56 8.5 47.3 17.67 0.696
22:39 1023 30.21 852 25.16 17.4 63.4 54 8.3 46.9 17.75 0.699
22:40 1023 30.21 852 25.16 17.6 63.6 54 8.3 47 17.9 0.705
22:41 1023 30.21 852 25.16 17.7 63.8 55 8.5 47.3 17.99 0.708
22:42 1023 30.21 852 25.16 17.7 63.8 53 8.1 46.6 18.01 0.709
22:43 1023 30.21 852 25.16 17.7 63.9 54 8.4 47.1 18.04 0.71
22:44 1023 30.21 852 25.16 17.7 63.9 52 7.8 46.1 18.1 0.713
22:45 1023 30.21 852 25.16 17.8 64.1 52 8 46.4 18.17 0.715
22:46 1023 30.21 852 25.16 17.8 64.1 52 8.1 46.5 18.16 0.715
22:47 1023 30.21 852 25.16 17.8 64.1 53 8.1 46.6 18.13 0.714
22:48 1023 30.21 852 25.16 17.7 63.9 52 7.9 46.3 18.07 0.711
22:49 1023 30.21 852 25.16 17.7 63.9 53 8.1 46.5 18.06 0.711
22:50 1023 30.21 852 25.16 17.6 63.6 55 8.5 47.3 17.94 0.706
22:51 1023 30.21 853 25.19 17.4 63.4 54 8.2 46.8 17.84 0.702
22:52 1023 30.21 852 25.16 17.3 63.2 56 8.6 47.4 17.72 0.698
22:53 1023 30.21 853 25.19 17.4 63.2 54 7.9 46.3 17.69 0.696
22:54 1023 30.21 853 25.19 17.4 63.3 56 8.5 47.3 17.73 0.698
22:55 1023 30.21 853 25.19 17.2 63 55 8.2 46.8 17.61 0.693
22:56 1023 30.21 853 25.19 17 62.6 58 8.8 47.8 17.43 0.686
22:57 1023 30.21 853 25.19 16.8 62.2 58 8.5 47.4 17.26 0.68
22:58 1023 30.21 853 25.19 16.6 61.9 58 8.5 47.4 17.08 0.672
22:59 1023 30.21 853 25.19 16.5 61.6 59 8.6 47.4 16.89 0.665
23:00 1023 30.21 853 25.19 16.3 61.4 60 8.6 47.6 16.77 0.66
23:01 1023 30.21 853 25.19 16.2 61.1 60 8.4 47.1 16.64 0.655
23:02 1023 30.21 853 25.19 16.2 61.1 60 8.4 47.1 16.55 0.652
23:03 1024 30.24 853 25.19 16.2 61.1 59 8.4 47 16.52 0.65
23:04 1024 30.24 853 25.19 16.2 61.1 58 8.1 46.6 16.53 0.651
23:05 1024 30.24 853 25.19 16.2 61.2 59 8.2 46.8 16.59 0.653
23:06 1024 30.24 853 25.19 16.1 61 59 8.3 47 16.56 0.652
23:07 1024 30.24 853 25.19 16.1 60.9 60 8.4 47.1 16.46 0.648
23:08 1024 30.24 853 25.19 16 60.8 61 8.5 47.3 16.35 0.644
23:09 1024 30.24 853 25.19 15.9 60.5 60 8.2 46.8 16.29 0.641
23:10 1024 30.24 853 25.19 15.8 60.5 60 8.2 46.8 16.21 0.638
23:11 1024 30.24 853 25.19 15.8 60.5 60 8.2 46.7 16.17 0.637
23:12 1024 30.24 853 25.19 15.8 60.4 62 8.6 47.4 16.13 0.635
23:13 1024 30.24 853 25.19 15.6 60 61 8.1 46.6 15.98 0.629
23:14 1024 30.24 853 25.19 15.5 59.9 61 8 46.5 15.88 0.625
23:15 1024 30.24 853 25.19 15.5 60 61 8.2 46.7 15.85 0.624
23:16 1024 30.24 853 25.19 15.4 59.8 62 8.2 46.8 15.81 0.622
23:17 1024 30.24 853 25.19 15.4 59.6 62 8.2 46.7 15.73 0.619
23:18 1024 30.24 853 25.19 15.3 59.6 61 8 46.4 15.69 0.618
23:19 1024 30.24 853 25.19 15.3 59.6 61 8 46.3 15.72 0.619
23:20 1024 30.24 853 25.19 15.4 59.8 60 7.9 46.1 15.74 0.62
23:21 1024 30.24 853 25.19 15.8 60.4 58 7.5 45.5 16 0.63
23:22 1024 30.24 853 25.19 16 60.8 58 7.7 45.9 16.34 0.643
23:23 1024 30.24 853 25.19 16 60.9 58 7.8 46 16.38 0.645
23:24 1024 30.24 853 25.19 16 60.8 58 7.9 46.1 16.33 0.643
23:25 1024 30.24 853 25.19 15.9 60.6 58 7.8 46 16.23 0.639
23:26 1024 30.24 853 25.19 15.9 60.7 57 7.6 45.7 16.26 0.64
23:27 1024 30.24 853 25.19 16 60.8 57 7.6 45.6 16.33 0.643
23:28 1024 30.24 853 25.19 16 60.8 58 7.8 46.1 16.35 0.644
23:29 1024 30.24 853 25.19 16 60.7 58 7.7 45.9 16.31 0.642
23:30 1024 30.24 853 25.19 15.9 60.6 58 7.7 45.9 16.29 0.641
23:31 1024 30.24 853 25.19 15.8 60.5 58 7.8 46 16.19 0.637
23:32 1024 30.24 853 25.19 15.9 60.5 58 7.6 45.7 16.17 0.637
23:33 1024 30.24 853 25.19 15.9 60.6 58 7.6 45.7 16.24 0.639
23:34 1024 30.24 853 25.19 15.9 60.7 57 7.6 45.7 16.25 0.64
23:35 1024 30.24 853 25.19 15.9 60.5 58 7.8 46 16.2 0.638
23:36 1024 30.24 853 25.19 15.7 60.2 60 8 46.3 16.1 0.634
23:37 1024 30.24 853 25.19 15.5 60 59 7.7 45.8 15.98 0.629
23:38 1024 30.24 853 25.19 15.6 60 59 7.7 45.9 15.91 0.626
23:39 1024 30.24 853 25.19 15.5 59.9 59 7.6 45.7 15.88 0.625
23:40 1024 30.24 853 25.19 15.6 60 59 7.7 45.8 15.92 0.627
23:41 1024 30.24 853 25.19 15.6 60.1 59 7.7 45.8 15.95 0.628
23:42 1024 30.24 853 25.19 15.7 60.2 59 7.7 45.9 16 0.63
23:43 1024 30.24 853 25.19 15.7 60.2 59 7.9 46.1 16 0.63
23:44 1024 30.24 853 25.19 15.5 60 60 7.9 46.3 15.92 0.627
23:45 1024 30.24 853 25.19 15.4 59.6 60 7.7 45.9 15.78 0.621
23:46 1024 30.24 853 25.19 15.3 59.6 60 7.8 46 15.73 0.619
23:47 1024 30.24 853 25.19 15.3 59.5 61 7.8 46.1 15.65 0.616
23:48 1024 30.24 853 25.19 15.2 59.3 61 7.9 46.2 15.56 0.613
23:49 1024 30.24 853 25.19 15.2 59.3 61 7.8 46 15.53 0.611
23:50 1024 30.24 853 25.19 15.2 59.4 61 7.8 46 15.56 0.613
23:51 1024 30.24 853 25.19 15.3 59.5 61 7.8 46 15.61 0.615
23:52 1024 30.24 853 25.19 15.3 59.6 61 7.8 46.1 15.67 0.617
23:53 1024 30.24 853 25.19 15.4 59.6 61 8 46.4 15.71 0.619
23:54 1024 30.24 853 25.19 15.2 59.4 61 7.9 46.3 15.63 0.615
23:55 1024 30.24 853 25.19 15.2 59.4 61 7.9 46.2 15.58 0.613
23:56 1024 30.24 853 25.19 15.2 59.4 61 7.8 46.1 15.58 0.613
23:57 1024 30.24 853 25.19 15.3 59.6 59 7.5 45.6 15.68 0.617
23:58 1024 30.24 853 25.19 15.4 59.8 59 7.7 45.8 15.8 0.622
23:59 1024 30.24 853 25.19 15.5 59.9 59 7.7 45.9 15.87 0.625
24:00 1024 30.24 853 25.19 15.6 60 59 7.7 45.8 15.88 0.625